<?xml version="1.0" encoding="UTF-8" standalone="no" ?>
<gpx xmlns="http://www.topografix.com/GPX/1/1" xmlns:xsi="http://www.w3.org/2001/XMLSchema-instance" xsi:schemaLocation="http://www.topografix.com/GPX/1/1 http://www.topografix.com/GPX/1/1/gpx.xsd" version="1.1" creator="VisuGPX - https://www.visugpx.com">
  <metadata>
    <name>ASCR 2018_09 Marcheurs samedi</name>
    <desc><![CDATA[Circuit effectué le samedi par les marcheurs de l'ASCR lors du week end de l'association à Saint Leonard des Bois dans la Sarthe.
Départ du Gite de groupe de Vandoeuvre.]]></desc>
  </metadata>
  <trk>
    <name><![CDATA[20181017211411-Rilcn]]></name>
    <trkseg>
      <trkpt lat="48.37906" lon="-0.05436">
        <ele>69</ele>
        <time>2018-09-22T11:50:49Z</time>
      </trkpt>
      <trkpt lat="48.37906" lon="-0.05436">
        <ele>69</ele>
        <time>2018-09-22T11:50:50Z</time>
      </trkpt>
      <trkpt lat="48.37905" lon="-0.05433">
        <ele>69</ele>
        <time>2018-09-22T11:51:29Z</time>
      </trkpt>
      <trkpt lat="48.37907" lon="-0.05433">
        <ele>69</ele>
        <time>2018-09-22T11:52:48Z</time>
      </trkpt>
      <trkpt lat="48.37911" lon="-0.0543">
        <ele>69</ele>
        <time>2018-09-22T11:52:58Z</time>
      </trkpt>
      <trkpt lat="48.37914" lon="-0.05428">
        <ele>70</ele>
        <time>2018-09-22T11:53:00Z</time>
      </trkpt>
      <trkpt lat="48.37916" lon="-0.05423">
        <ele>70</ele>
        <time>2018-09-22T11:53:04Z</time>
      </trkpt>
      <trkpt lat="48.37928" lon="-0.05402">
        <ele>71</ele>
        <time>2018-09-22T11:53:19Z</time>
      </trkpt>
      <trkpt lat="48.3794" lon="-0.05395">
        <ele>72</ele>
        <time>2018-09-22T11:53:31Z</time>
      </trkpt>
      <trkpt lat="48.37942" lon="-0.05394">
        <ele>71</ele>
        <time>2018-09-22T11:53:33Z</time>
      </trkpt>
      <trkpt lat="48.37945" lon="-0.05392">
        <ele>71</ele>
        <time>2018-09-22T11:53:35Z</time>
      </trkpt>
      <trkpt lat="48.37949" lon="-0.05365">
        <ele>70</ele>
        <time>2018-09-22T11:53:49Z</time>
      </trkpt>
      <trkpt lat="48.37948" lon="-0.05355">
        <ele>72</ele>
        <time>2018-09-22T11:53:55Z</time>
      </trkpt>
      <trkpt lat="48.37947" lon="-0.05352">
        <ele>73</ele>
        <time>2018-09-22T11:53:57Z</time>
      </trkpt>
      <trkpt lat="48.37946" lon="-0.0535">
        <ele>73</ele>
        <time>2018-09-22T11:54:00Z</time>
      </trkpt>
      <trkpt lat="48.37945" lon="-0.05348">
        <ele>73</ele>
        <time>2018-09-22T11:54:03Z</time>
      </trkpt>
      <trkpt lat="48.37945" lon="-0.05349">
        <ele>72</ele>
        <time>2018-09-22T11:54:18Z</time>
      </trkpt>
      <trkpt lat="48.37945" lon="-0.0535">
        <ele>72</ele>
        <time>2018-09-22T11:54:20Z</time>
      </trkpt>
      <trkpt lat="48.37946" lon="-0.05352">
        <ele>72</ele>
        <time>2018-09-22T11:54:22Z</time>
      </trkpt>
      <trkpt lat="48.37946" lon="-0.05354">
        <ele>71</ele>
        <time>2018-09-22T11:54:24Z</time>
      </trkpt>
      <trkpt lat="48.37947" lon="-0.05356">
        <ele>71</ele>
        <time>2018-09-22T11:54:26Z</time>
      </trkpt>
      <trkpt lat="48.37948" lon="-0.05367">
        <ele>67</ele>
        <time>2018-09-22T11:54:34Z</time>
      </trkpt>
      <trkpt lat="48.37947" lon="-0.05379">
        <ele>65</ele>
        <time>2018-09-22T11:54:42Z</time>
      </trkpt>
      <trkpt lat="48.37947" lon="-0.05388">
        <ele>65</ele>
        <time>2018-09-22T11:54:48Z</time>
      </trkpt>
      <trkpt lat="48.37947" lon="-0.05391">
        <ele>65</ele>
        <time>2018-09-22T11:54:50Z</time>
      </trkpt>
      <trkpt lat="48.37945" lon="-0.05393">
        <ele>65</ele>
        <time>2018-09-22T11:54:53Z</time>
      </trkpt>
      <trkpt lat="48.37936" lon="-0.05395">
        <ele>64</ele>
        <time>2018-09-22T11:55:01Z</time>
      </trkpt>
      <trkpt lat="48.37934" lon="-0.05397">
        <ele>65</ele>
        <time>2018-09-22T11:55:03Z</time>
      </trkpt>
      <trkpt lat="48.37928" lon="-0.05408">
        <ele>65</ele>
        <time>2018-09-22T11:55:11Z</time>
      </trkpt>
      <trkpt lat="48.37924" lon="-0.05415">
        <ele>65</ele>
        <time>2018-09-22T11:55:17Z</time>
      </trkpt>
      <trkpt lat="48.37923" lon="-0.05418">
        <ele>65</ele>
        <time>2018-09-22T11:55:19Z</time>
      </trkpt>
      <trkpt lat="48.37921" lon="-0.0542">
        <ele>65</ele>
        <time>2018-09-22T11:55:22Z</time>
      </trkpt>
      <trkpt lat="48.37919" lon="-0.05425">
        <ele>64</ele>
        <time>2018-09-22T11:55:47Z</time>
      </trkpt>
      <trkpt lat="48.37919" lon="-0.05426">
        <ele>63</ele>
        <time>2018-09-22T11:55:58Z</time>
      </trkpt>
      <trkpt lat="48.37915" lon="-0.05429">
        <ele>62</ele>
        <time>2018-09-22T11:56:32Z</time>
      </trkpt>
      <trkpt lat="48.37914" lon="-0.05431">
        <ele>61</ele>
        <time>2018-09-22T11:56:42Z</time>
      </trkpt>
      <trkpt lat="48.37916" lon="-0.05429">
        <ele>61</ele>
        <time>2018-09-22T11:57:14Z</time>
      </trkpt>
      <trkpt lat="48.37917" lon="-0.05429">
        <ele>60</ele>
        <time>2018-09-22T11:57:25Z</time>
      </trkpt>
      <trkpt lat="48.37919" lon="-0.05428">
        <ele>59</ele>
        <time>2018-09-22T11:57:42Z</time>
      </trkpt>
      <trkpt lat="48.37919" lon="-0.05426">
        <ele>58</ele>
        <time>2018-09-22T11:59:16Z</time>
      </trkpt>
      <trkpt lat="48.37918" lon="-0.05426">
        <ele>58</ele>
        <time>2018-09-22T11:59:31Z</time>
      </trkpt>
      <trkpt lat="48.3792" lon="-0.05437">
        <ele>56</ele>
        <time>2018-09-22T12:00:24Z</time>
      </trkpt>
      <trkpt lat="48.37914" lon="-0.05438">
        <ele>56</ele>
        <time>2018-09-22T12:00:30Z</time>
      </trkpt>
      <trkpt lat="48.37912" lon="-0.05442">
        <ele>56</ele>
        <time>2018-09-22T12:00:33Z</time>
      </trkpt>
      <trkpt lat="48.37911" lon="-0.05442">
        <ele>57</ele>
        <time>2018-09-22T12:00:48Z</time>
      </trkpt>
      <trkpt lat="48.37909" lon="-0.05442">
        <ele>57</ele>
        <time>2018-09-22T12:01:09Z</time>
      </trkpt>
      <trkpt lat="48.3791" lon="-0.05448">
        <ele>56</ele>
        <time>2018-09-22T12:01:28Z</time>
      </trkpt>
      <trkpt lat="48.3791" lon="-0.05468">
        <ele>53</ele>
        <time>2018-09-22T12:01:42Z</time>
      </trkpt>
      <trkpt lat="48.37909" lon="-0.05478">
        <ele>54</ele>
        <time>2018-09-22T12:01:49Z</time>
      </trkpt>
      <trkpt lat="48.37907" lon="-0.0549">
        <ele>54</ele>
        <time>2018-09-22T12:01:57Z</time>
      </trkpt>
      <trkpt lat="48.37906" lon="-0.05493">
        <ele>55</ele>
        <time>2018-09-22T12:01:59Z</time>
      </trkpt>
      <trkpt lat="48.37896" lon="-0.05494">
        <ele>58</ele>
        <time>2018-09-22T12:02:09Z</time>
      </trkpt>
      <trkpt lat="48.37892" lon="-0.05492">
        <ele>58</ele>
        <time>2018-09-22T12:02:12Z</time>
      </trkpt>
      <trkpt lat="48.37867" lon="-0.0548">
        <ele>63</ele>
        <time>2018-09-22T12:02:36Z</time>
      </trkpt>
      <trkpt lat="48.37838" lon="-0.05462">
        <ele>61</ele>
        <time>2018-09-22T12:03:07Z</time>
      </trkpt>
      <trkpt lat="48.37813" lon="-0.05442">
        <ele>61</ele>
        <time>2018-09-22T12:03:32Z</time>
      </trkpt>
      <trkpt lat="48.37804" lon="-0.05436">
        <ele>61</ele>
        <time>2018-09-22T12:03:40Z</time>
      </trkpt>
      <trkpt lat="48.37802" lon="-0.05434">
        <ele>61</ele>
        <time>2018-09-22T12:03:42Z</time>
      </trkpt>
      <trkpt lat="48.37787" lon="-0.05415">
        <ele>61</ele>
        <time>2018-09-22T12:04:00Z</time>
      </trkpt>
      <trkpt lat="48.37785" lon="-0.05412">
        <ele>61</ele>
        <time>2018-09-22T12:04:02Z</time>
      </trkpt>
      <trkpt lat="48.37775" lon="-0.05399">
        <ele>62</ele>
        <time>2018-09-22T12:04:13Z</time>
      </trkpt>
      <trkpt lat="48.37767" lon="-0.05392">
        <ele>65</ele>
        <time>2018-09-22T12:04:19Z</time>
      </trkpt>
      <trkpt lat="48.3776" lon="-0.05384">
        <ele>64</ele>
        <time>2018-09-22T12:04:33Z</time>
      </trkpt>
      <trkpt lat="48.37758" lon="-0.05382">
        <ele>64</ele>
        <time>2018-09-22T12:04:36Z</time>
      </trkpt>
      <trkpt lat="48.37744" lon="-0.05376">
        <ele>64</ele>
        <time>2018-09-22T12:04:53Z</time>
      </trkpt>
      <trkpt lat="48.37739" lon="-0.05371">
        <ele>64</ele>
        <time>2018-09-22T12:04:59Z</time>
      </trkpt>
      <trkpt lat="48.37728" lon="-0.05358">
        <ele>66</ele>
        <time>2018-09-22T12:05:13Z</time>
      </trkpt>
      <trkpt lat="48.37726" lon="-0.05356">
        <ele>67</ele>
        <time>2018-09-22T12:05:15Z</time>
      </trkpt>
      <trkpt lat="48.3772" lon="-0.05352">
        <ele>68</ele>
        <time>2018-09-22T12:05:21Z</time>
      </trkpt>
      <trkpt lat="48.37718" lon="-0.0535">
        <ele>68</ele>
        <time>2018-09-22T12:05:23Z</time>
      </trkpt>
      <trkpt lat="48.37715" lon="-0.05348">
        <ele>68</ele>
        <time>2018-09-22T12:05:25Z</time>
      </trkpt>
      <trkpt lat="48.37713" lon="-0.05347">
        <ele>68</ele>
        <time>2018-09-22T12:05:27Z</time>
      </trkpt>
      <trkpt lat="48.37712" lon="-0.05345">
        <ele>68</ele>
        <time>2018-09-22T12:05:29Z</time>
      </trkpt>
      <trkpt lat="48.3771" lon="-0.05342">
        <ele>68</ele>
        <time>2018-09-22T12:05:31Z</time>
      </trkpt>
      <trkpt lat="48.37708" lon="-0.05341">
        <ele>68</ele>
        <time>2018-09-22T12:05:33Z</time>
      </trkpt>
      <trkpt lat="48.37704" lon="-0.05336">
        <ele>68</ele>
        <time>2018-09-22T12:05:37Z</time>
      </trkpt>
      <trkpt lat="48.37702" lon="-0.05334">
        <ele>68</ele>
        <time>2018-09-22T12:05:39Z</time>
      </trkpt>
      <trkpt lat="48.37697" lon="-0.05328">
        <ele>68</ele>
        <time>2018-09-22T12:05:45Z</time>
      </trkpt>
      <trkpt lat="48.37684" lon="-0.05309">
        <ele>64</ele>
        <time>2018-09-22T12:06:02Z</time>
      </trkpt>
      <trkpt lat="48.37672" lon="-0.05293">
        <ele>61</ele>
        <time>2018-09-22T12:06:17Z</time>
      </trkpt>
      <trkpt lat="48.37665" lon="-0.05281">
        <ele>61</ele>
        <time>2018-09-22T12:06:25Z</time>
      </trkpt>
      <trkpt lat="48.37663" lon="-0.05279">
        <ele>62</ele>
        <time>2018-09-22T12:06:27Z</time>
      </trkpt>
      <trkpt lat="48.3764" lon="-0.05248">
        <ele>63</ele>
        <time>2018-09-22T12:06:58Z</time>
      </trkpt>
      <trkpt lat="48.37629" lon="-0.05234">
        <ele>65</ele>
        <time>2018-09-22T12:07:11Z</time>
      </trkpt>
      <trkpt lat="48.37623" lon="-0.05224">
        <ele>66</ele>
        <time>2018-09-22T12:07:20Z</time>
      </trkpt>
      <trkpt lat="48.37622" lon="-0.05222">
        <ele>66</ele>
        <time>2018-09-22T12:07:22Z</time>
      </trkpt>
      <trkpt lat="48.37607" lon="-0.05181">
        <ele>68</ele>
        <time>2018-09-22T12:07:49Z</time>
      </trkpt>
      <trkpt lat="48.37602" lon="-0.05148">
        <ele>66</ele>
        <time>2018-09-22T12:08:09Z</time>
      </trkpt>
      <trkpt lat="48.37601" lon="-0.05141">
        <ele>66</ele>
        <time>2018-09-22T12:08:13Z</time>
      </trkpt>
      <trkpt lat="48.37599" lon="-0.05125">
        <ele>67</ele>
        <time>2018-09-22T12:08:22Z</time>
      </trkpt>
      <trkpt lat="48.37598" lon="-0.05122">
        <ele>67</ele>
        <time>2018-09-22T12:08:24Z</time>
      </trkpt>
      <trkpt lat="48.37597" lon="-0.05118">
        <ele>67</ele>
        <time>2018-09-22T12:08:26Z</time>
      </trkpt>
      <trkpt lat="48.37595" lon="-0.05104">
        <ele>68</ele>
        <time>2018-09-22T12:08:35Z</time>
      </trkpt>
      <trkpt lat="48.37594" lon="-0.05094">
        <ele>69</ele>
        <time>2018-09-22T12:08:41Z</time>
      </trkpt>
      <trkpt lat="48.37593" lon="-0.05091">
        <ele>70</ele>
        <time>2018-09-22T12:08:43Z</time>
      </trkpt>
      <trkpt lat="48.37593" lon="-0.05075">
        <ele>70</ele>
        <time>2018-09-22T12:08:52Z</time>
      </trkpt>
      <trkpt lat="48.37592" lon="-0.0507">
        <ele>70</ele>
        <time>2018-09-22T12:08:55Z</time>
      </trkpt>
      <trkpt lat="48.3759" lon="-0.05059">
        <ele>68</ele>
        <time>2018-09-22T12:09:05Z</time>
      </trkpt>
      <trkpt lat="48.37589" lon="-0.05057">
        <ele>67</ele>
        <time>2018-09-22T12:09:41Z</time>
      </trkpt>
      <trkpt lat="48.37592" lon="-0.05052">
        <ele>64</ele>
        <time>2018-09-22T12:10:47Z</time>
      </trkpt>
      <trkpt lat="48.37593" lon="-0.05051">
        <ele>62</ele>
        <time>2018-09-22T12:10:59Z</time>
      </trkpt>
      <trkpt lat="48.37596" lon="-0.05055">
        <ele>63</ele>
        <time>2018-09-22T12:11:25Z</time>
      </trkpt>
      <trkpt lat="48.37595" lon="-0.05056">
        <ele>62</ele>
        <time>2018-09-22T12:12:03Z</time>
      </trkpt>
      <trkpt lat="48.37591" lon="-0.05055">
        <ele>64</ele>
        <time>2018-09-22T12:12:34Z</time>
      </trkpt>
      <trkpt lat="48.37593" lon="-0.05054">
        <ele>66</ele>
        <time>2018-09-22T12:13:41Z</time>
      </trkpt>
      <trkpt lat="48.37592" lon="-0.05055">
        <ele>67</ele>
        <time>2018-09-22T12:14:31Z</time>
      </trkpt>
      <trkpt lat="48.37596" lon="-0.05056">
        <ele>67</ele>
        <time>2018-09-22T12:14:46Z</time>
      </trkpt>
      <trkpt lat="48.37597" lon="-0.05057">
        <ele>67</ele>
        <time>2018-09-22T12:14:49Z</time>
      </trkpt>
      <trkpt lat="48.37598" lon="-0.05055">
        <ele>68</ele>
        <time>2018-09-22T12:15:06Z</time>
      </trkpt>
      <trkpt lat="48.37599" lon="-0.05053">
        <ele>68</ele>
        <time>2018-09-22T12:15:09Z</time>
      </trkpt>
      <trkpt lat="48.37598" lon="-0.05051">
        <ele>69</ele>
        <time>2018-09-22T12:15:13Z</time>
      </trkpt>
      <trkpt lat="48.37597" lon="-0.0505">
        <ele>68</ele>
        <time>2018-09-22T12:15:40Z</time>
      </trkpt>
      <trkpt lat="48.37596" lon="-0.0505">
        <ele>68</ele>
        <time>2018-09-22T12:15:43Z</time>
      </trkpt>
      <trkpt lat="48.37595" lon="-0.0505">
        <ele>68</ele>
        <time>2018-09-22T12:15:50Z</time>
      </trkpt>
      <trkpt lat="48.37594" lon="-0.05052">
        <ele>68</ele>
        <time>2018-09-22T12:16:05Z</time>
      </trkpt>
      <trkpt lat="48.37597" lon="-0.05055">
        <ele>68</ele>
        <time>2018-09-22T12:16:22Z</time>
      </trkpt>
      <trkpt lat="48.37598" lon="-0.05057">
        <ele>68</ele>
        <time>2018-09-22T12:16:24Z</time>
      </trkpt>
      <trkpt lat="48.37601" lon="-0.05059">
        <ele>69</ele>
        <time>2018-09-22T12:16:27Z</time>
      </trkpt>
      <trkpt lat="48.37604" lon="-0.05063">
        <ele>70</ele>
        <time>2018-09-22T12:16:31Z</time>
      </trkpt>
      <trkpt lat="48.3761" lon="-0.05067">
        <ele>71</ele>
        <time>2018-09-22T12:16:37Z</time>
      </trkpt>
      <trkpt lat="48.37612" lon="-0.05069">
        <ele>71</ele>
        <time>2018-09-22T12:16:40Z</time>
      </trkpt>
      <trkpt lat="48.37637" lon="-0.05087">
        <ele>72</ele>
        <time>2018-09-22T12:17:05Z</time>
      </trkpt>
      <trkpt lat="48.37643" lon="-0.05093">
        <ele>72</ele>
        <time>2018-09-22T12:17:13Z</time>
      </trkpt>
      <trkpt lat="48.37657" lon="-0.05106">
        <ele>72</ele>
        <time>2018-09-22T12:17:29Z</time>
      </trkpt>
      <trkpt lat="48.37659" lon="-0.05107">
        <ele>72</ele>
        <time>2018-09-22T12:17:31Z</time>
      </trkpt>
      <trkpt lat="48.3769" lon="-0.05131">
        <ele>75</ele>
        <time>2018-09-22T12:18:02Z</time>
      </trkpt>
      <trkpt lat="48.37695" lon="-0.05136">
        <ele>76</ele>
        <time>2018-09-22T12:18:08Z</time>
      </trkpt>
      <trkpt lat="48.37697" lon="-0.05137">
        <ele>76</ele>
        <time>2018-09-22T12:18:10Z</time>
      </trkpt>
      <trkpt lat="48.377" lon="-0.05138">
        <ele>77</ele>
        <time>2018-09-22T12:18:13Z</time>
      </trkpt>
      <trkpt lat="48.37704" lon="-0.0514">
        <ele>77</ele>
        <time>2018-09-22T12:18:17Z</time>
      </trkpt>
      <trkpt lat="48.37706" lon="-0.05142">
        <ele>77</ele>
        <time>2018-09-22T12:18:20Z</time>
      </trkpt>
      <trkpt lat="48.3771" lon="-0.05146">
        <ele>78</ele>
        <time>2018-09-22T12:18:38Z</time>
      </trkpt>
      <trkpt lat="48.37715" lon="-0.05153">
        <ele>78</ele>
        <time>2018-09-22T12:19:02Z</time>
      </trkpt>
      <trkpt lat="48.37723" lon="-0.05159">
        <ele>78</ele>
        <time>2018-09-22T12:19:15Z</time>
      </trkpt>
      <trkpt lat="48.37737" lon="-0.05168">
        <ele>78</ele>
        <time>2018-09-22T12:19:32Z</time>
      </trkpt>
      <trkpt lat="48.37739" lon="-0.05167">
        <ele>79</ele>
        <time>2018-09-22T12:19:36Z</time>
      </trkpt>
      <trkpt lat="48.37742" lon="-0.05168">
        <ele>81</ele>
        <time>2018-09-22T12:20:12Z</time>
      </trkpt>
      <trkpt lat="48.37744" lon="-0.0517">
        <ele>81</ele>
        <time>2018-09-22T12:20:15Z</time>
      </trkpt>
      <trkpt lat="48.37763" lon="-0.05191">
        <ele>80</ele>
        <time>2018-09-22T12:20:45Z</time>
      </trkpt>
      <trkpt lat="48.37792" lon="-0.05213">
        <ele>84</ele>
        <time>2018-09-22T12:21:13Z</time>
      </trkpt>
      <trkpt lat="48.37794" lon="-0.05215">
        <ele>83</ele>
        <time>2018-09-22T12:21:16Z</time>
      </trkpt>
      <trkpt lat="48.37806" lon="-0.05225">
        <ele>82</ele>
        <time>2018-09-22T12:21:29Z</time>
      </trkpt>
      <trkpt lat="48.37808" lon="-0.05225">
        <ele>82</ele>
        <time>2018-09-22T12:21:32Z</time>
      </trkpt>
      <trkpt lat="48.37811" lon="-0.05226">
        <ele>83</ele>
        <time>2018-09-22T12:21:42Z</time>
      </trkpt>
      <trkpt lat="48.37815" lon="-0.05207">
        <ele>87</ele>
        <time>2018-09-22T12:22:16Z</time>
      </trkpt>
      <trkpt lat="48.37818" lon="-0.05191">
        <ele>82</ele>
        <time>2018-09-22T12:23:01Z</time>
      </trkpt>
      <trkpt lat="48.37824" lon="-0.05198">
        <ele>81</ele>
        <time>2018-09-22T12:23:33Z</time>
      </trkpt>
      <trkpt lat="48.37817" lon="-0.05201">
        <ele>82</ele>
        <time>2018-09-22T12:23:53Z</time>
      </trkpt>
      <trkpt lat="48.37815" lon="-0.05203">
        <ele>76</ele>
        <time>2018-09-22T12:24:25Z</time>
      </trkpt>
      <trkpt lat="48.37816" lon="-0.05217">
        <ele>74</ele>
        <time>2018-09-22T12:24:49Z</time>
      </trkpt>
      <trkpt lat="48.37819" lon="-0.05222">
        <ele>72</ele>
        <time>2018-09-22T12:25:43Z</time>
      </trkpt>
      <trkpt lat="48.37817" lon="-0.05225">
        <ele>79</ele>
        <time>2018-09-22T12:25:48Z</time>
      </trkpt>
      <trkpt lat="48.37819" lon="-0.05228">
        <ele>83</ele>
        <time>2018-09-22T12:25:53Z</time>
      </trkpt>
      <trkpt lat="48.37823" lon="-0.05222">
        <ele>87</ele>
        <time>2018-09-22T12:26:01Z</time>
      </trkpt>
      <trkpt lat="48.37825" lon="-0.05214">
        <ele>88</ele>
        <time>2018-09-22T12:26:09Z</time>
      </trkpt>
      <trkpt lat="48.37826" lon="-0.05209">
        <ele>88</ele>
        <time>2018-09-22T12:26:13Z</time>
      </trkpt>
      <trkpt lat="48.37825" lon="-0.05205">
        <ele>87</ele>
        <time>2018-09-22T12:26:17Z</time>
      </trkpt>
      <trkpt lat="48.37823" lon="-0.05197">
        <ele>87</ele>
        <time>2018-09-22T12:26:24Z</time>
      </trkpt>
      <trkpt lat="48.37823" lon="-0.05194">
        <ele>85</ele>
        <time>2018-09-22T12:26:38Z</time>
      </trkpt>
      <trkpt lat="48.37821" lon="-0.05191">
        <ele>85</ele>
        <time>2018-09-22T12:26:47Z</time>
      </trkpt>
      <trkpt lat="48.37819" lon="-0.05188">
        <ele>83</ele>
        <time>2018-09-22T12:26:52Z</time>
      </trkpt>
      <trkpt lat="48.37818" lon="-0.05185">
        <ele>83</ele>
        <time>2018-09-22T12:26:56Z</time>
      </trkpt>
      <trkpt lat="48.37816" lon="-0.05184">
        <ele>83</ele>
        <time>2018-09-22T12:27:02Z</time>
      </trkpt>
      <trkpt lat="48.37813" lon="-0.05183">
        <ele>83</ele>
        <time>2018-09-22T12:27:08Z</time>
      </trkpt>
      <trkpt lat="48.37811" lon="-0.05185">
        <ele>84</ele>
        <time>2018-09-22T12:27:16Z</time>
      </trkpt>
      <trkpt lat="48.3781" lon="-0.05183">
        <ele>85</ele>
        <time>2018-09-22T12:27:35Z</time>
      </trkpt>
      <trkpt lat="48.37803" lon="-0.0518">
        <ele>80</ele>
        <time>2018-09-22T12:27:46Z</time>
      </trkpt>
      <trkpt lat="48.37802" lon="-0.05172">
        <ele>79</ele>
        <time>2018-09-22T12:27:51Z</time>
      </trkpt>
      <trkpt lat="48.37801" lon="-0.05165">
        <ele>81</ele>
        <time>2018-09-22T12:27:56Z</time>
      </trkpt>
      <trkpt lat="48.37798" lon="-0.0516">
        <ele>82</ele>
        <time>2018-09-22T12:28:03Z</time>
      </trkpt>
      <trkpt lat="48.37794" lon="-0.05158">
        <ele>82</ele>
        <time>2018-09-22T12:28:14Z</time>
      </trkpt>
      <trkpt lat="48.3779" lon="-0.0516">
        <ele>81</ele>
        <time>2018-09-22T12:28:31Z</time>
      </trkpt>
      <trkpt lat="48.37789" lon="-0.05162">
        <ele>80</ele>
        <time>2018-09-22T12:28:35Z</time>
      </trkpt>
      <trkpt lat="48.37789" lon="-0.05164">
        <ele>80</ele>
        <time>2018-09-22T12:28:45Z</time>
      </trkpt>
      <trkpt lat="48.37793" lon="-0.0517">
        <ele>80</ele>
        <time>2018-09-22T12:29:00Z</time>
      </trkpt>
      <trkpt lat="48.37797" lon="-0.05172">
        <ele>82</ele>
        <time>2018-09-22T12:29:08Z</time>
      </trkpt>
      <trkpt lat="48.37799" lon="-0.05174">
        <ele>82</ele>
        <time>2018-09-22T12:29:18Z</time>
      </trkpt>
      <trkpt lat="48.37799" lon="-0.05175">
        <ele>82</ele>
        <time>2018-09-22T12:30:02Z</time>
      </trkpt>
      <trkpt lat="48.37802" lon="-0.05174">
        <ele>82</ele>
        <time>2018-09-22T12:30:22Z</time>
      </trkpt>
      <trkpt lat="48.37807" lon="-0.05179">
        <ele>84</ele>
        <time>2018-09-22T12:30:30Z</time>
      </trkpt>
      <trkpt lat="48.37809" lon="-0.0518">
        <ele>83</ele>
        <time>2018-09-22T12:30:33Z</time>
      </trkpt>
      <trkpt lat="48.37811" lon="-0.05181">
        <ele>85</ele>
        <time>2018-09-22T12:30:50Z</time>
      </trkpt>
      <trkpt lat="48.37813" lon="-0.05183">
        <ele>85</ele>
        <time>2018-09-22T12:31:50Z</time>
      </trkpt>
      <trkpt lat="48.37817" lon="-0.05181">
        <ele>89</ele>
        <time>2018-09-22T12:32:07Z</time>
      </trkpt>
      <trkpt lat="48.37819" lon="-0.05183">
        <ele>89</ele>
        <time>2018-09-22T12:32:11Z</time>
      </trkpt>
      <trkpt lat="48.3782" lon="-0.05185">
        <ele>89</ele>
        <time>2018-09-22T12:32:15Z</time>
      </trkpt>
      <trkpt lat="48.37822" lon="-0.05192">
        <ele>87</ele>
        <time>2018-09-22T12:32:22Z</time>
      </trkpt>
      <trkpt lat="48.37821" lon="-0.05197">
        <ele>85</ele>
        <time>2018-09-22T12:32:26Z</time>
      </trkpt>
      <trkpt lat="48.3782" lon="-0.05205">
        <ele>84</ele>
        <time>2018-09-22T12:32:32Z</time>
      </trkpt>
      <trkpt lat="48.37815" lon="-0.05219">
        <ele>83</ele>
        <time>2018-09-22T12:32:46Z</time>
      </trkpt>
      <trkpt lat="48.37815" lon="-0.05224">
        <ele>82</ele>
        <time>2018-09-22T12:32:49Z</time>
      </trkpt>
      <trkpt lat="48.37817" lon="-0.05227">
        <ele>82</ele>
        <time>2018-09-22T12:32:52Z</time>
      </trkpt>
      <trkpt lat="48.37819" lon="-0.05229">
        <ele>83</ele>
        <time>2018-09-22T12:32:53Z</time>
      </trkpt>
      <trkpt lat="48.37827" lon="-0.05234">
        <ele>87</ele>
        <time>2018-09-22T12:32:59Z</time>
      </trkpt>
      <trkpt lat="48.3784" lon="-0.05238">
        <ele>88</ele>
        <time>2018-09-22T12:33:11Z</time>
      </trkpt>
      <trkpt lat="48.37842" lon="-0.0524">
        <ele>88</ele>
        <time>2018-09-22T12:33:14Z</time>
      </trkpt>
      <trkpt lat="48.37844" lon="-0.0524">
        <ele>87</ele>
        <time>2018-09-22T12:33:42Z</time>
      </trkpt>
      <trkpt lat="48.37873" lon="-0.05256">
        <ele>86</ele>
        <time>2018-09-22T12:34:12Z</time>
      </trkpt>
      <trkpt lat="48.37882" lon="-0.0526">
        <ele>85</ele>
        <time>2018-09-22T12:34:21Z</time>
      </trkpt>
      <trkpt lat="48.37887" lon="-0.05262">
        <ele>83</ele>
        <time>2018-09-22T12:34:28Z</time>
      </trkpt>
      <trkpt lat="48.3789" lon="-0.05264">
        <ele>83</ele>
        <time>2018-09-22T12:34:31Z</time>
      </trkpt>
      <trkpt lat="48.37918" lon="-0.0528">
        <ele>80</ele>
        <time>2018-09-22T12:35:04Z</time>
      </trkpt>
      <trkpt lat="48.37931" lon="-0.05279">
        <ele>79</ele>
        <time>2018-09-22T12:35:25Z</time>
      </trkpt>
      <trkpt lat="48.37932" lon="-0.05282">
        <ele>79</ele>
        <time>2018-09-22T12:35:31Z</time>
      </trkpt>
      <trkpt lat="48.37934" lon="-0.05284">
        <ele>80</ele>
        <time>2018-09-22T12:35:35Z</time>
      </trkpt>
      <trkpt lat="48.37937" lon="-0.05284">
        <ele>80</ele>
        <time>2018-09-22T12:35:45Z</time>
      </trkpt>
      <trkpt lat="48.37938" lon="-0.05281">
        <ele>80</ele>
        <time>2018-09-22T12:35:49Z</time>
      </trkpt>
      <trkpt lat="48.37941" lon="-0.05281">
        <ele>79</ele>
        <time>2018-09-22T12:35:55Z</time>
      </trkpt>
      <trkpt lat="48.37946" lon="-0.05284">
        <ele>80</ele>
        <time>2018-09-22T12:36:07Z</time>
      </trkpt>
      <trkpt lat="48.37949" lon="-0.05283">
        <ele>81</ele>
        <time>2018-09-22T12:36:11Z</time>
      </trkpt>
      <trkpt lat="48.37954" lon="-0.05281">
        <ele>81</ele>
        <time>2018-09-22T12:36:22Z</time>
      </trkpt>
      <trkpt lat="48.37953" lon="-0.05283">
        <ele>80</ele>
        <time>2018-09-22T12:38:10Z</time>
      </trkpt>
      <trkpt lat="48.37953" lon="-0.05282">
        <ele>79</ele>
        <time>2018-09-22T12:38:35Z</time>
      </trkpt>
      <trkpt lat="48.37951" lon="-0.05281">
        <ele>79</ele>
        <time>2018-09-22T12:38:38Z</time>
      </trkpt>
      <trkpt lat="48.37946" lon="-0.05279">
        <ele>77</ele>
        <time>2018-09-22T12:38:44Z</time>
      </trkpt>
      <trkpt lat="48.37944" lon="-0.05277">
        <ele>76</ele>
        <time>2018-09-22T12:38:48Z</time>
      </trkpt>
      <trkpt lat="48.37942" lon="-0.05277">
        <ele>76</ele>
        <time>2018-09-22T12:38:51Z</time>
      </trkpt>
      <trkpt lat="48.3794" lon="-0.05275">
        <ele>76</ele>
        <time>2018-09-22T12:39:02Z</time>
      </trkpt>
      <trkpt lat="48.3794" lon="-0.0528">
        <ele>74</ele>
        <time>2018-09-22T12:39:13Z</time>
      </trkpt>
      <trkpt lat="48.37942" lon="-0.05283">
        <ele>72</ele>
        <time>2018-09-22T12:39:29Z</time>
      </trkpt>
      <trkpt lat="48.37953" lon="-0.05286">
        <ele>72</ele>
        <time>2018-09-22T12:39:42Z</time>
      </trkpt>
      <trkpt lat="48.37955" lon="-0.05286">
        <ele>73</ele>
        <time>2018-09-22T12:39:54Z</time>
      </trkpt>
      <trkpt lat="48.37955" lon="-0.05289">
        <ele>73</ele>
        <time>2018-09-22T12:40:38Z</time>
      </trkpt>
      <trkpt lat="48.37954" lon="-0.05292">
        <ele>73</ele>
        <time>2018-09-22T12:40:41Z</time>
      </trkpt>
      <trkpt lat="48.37954" lon="-0.05287">
        <ele>71</ele>
        <time>2018-09-22T12:41:22Z</time>
      </trkpt>
      <trkpt lat="48.37947" lon="-0.0528">
        <ele>71</ele>
        <time>2018-09-22T12:41:32Z</time>
      </trkpt>
      <trkpt lat="48.37943" lon="-0.05275">
        <ele>71</ele>
        <time>2018-09-22T12:41:40Z</time>
      </trkpt>
      <trkpt lat="48.3794" lon="-0.05259">
        <ele>72</ele>
        <time>2018-09-22T12:41:54Z</time>
      </trkpt>
      <trkpt lat="48.37939" lon="-0.05255">
        <ele>72</ele>
        <time>2018-09-22T12:41:57Z</time>
      </trkpt>
      <trkpt lat="48.37933" lon="-0.05248">
        <ele>72</ele>
        <time>2018-09-22T12:42:07Z</time>
      </trkpt>
      <trkpt lat="48.3793" lon="-0.05246">
        <ele>72</ele>
        <time>2018-09-22T12:42:10Z</time>
      </trkpt>
      <trkpt lat="48.37926" lon="-0.05233">
        <ele>71</ele>
        <time>2018-09-22T12:42:19Z</time>
      </trkpt>
      <trkpt lat="48.37923" lon="-0.0523">
        <ele>71</ele>
        <time>2018-09-22T12:42:22Z</time>
      </trkpt>
      <trkpt lat="48.37921" lon="-0.05229">
        <ele>71</ele>
        <time>2018-09-22T12:42:24Z</time>
      </trkpt>
      <trkpt lat="48.37919" lon="-0.05226">
        <ele>71</ele>
        <time>2018-09-22T12:42:27Z</time>
      </trkpt>
      <trkpt lat="48.37914" lon="-0.05215">
        <ele>71</ele>
        <time>2018-09-22T12:42:36Z</time>
      </trkpt>
      <trkpt lat="48.37913" lon="-0.05211">
        <ele>70</ele>
        <time>2018-09-22T12:42:40Z</time>
      </trkpt>
      <trkpt lat="48.37913" lon="-0.05208">
        <ele>69</ele>
        <time>2018-09-22T12:42:44Z</time>
      </trkpt>
      <trkpt lat="48.37913" lon="-0.05198">
        <ele>70</ele>
        <time>2018-09-22T12:43:02Z</time>
      </trkpt>
      <trkpt lat="48.37911" lon="-0.05201">
        <ele>71</ele>
        <time>2018-09-22T12:43:20Z</time>
      </trkpt>
      <trkpt lat="48.37909" lon="-0.05193">
        <ele>71</ele>
        <time>2018-09-22T12:43:37Z</time>
      </trkpt>
      <trkpt lat="48.37908" lon="-0.0519">
        <ele>72</ele>
        <time>2018-09-22T12:43:40Z</time>
      </trkpt>
      <trkpt lat="48.37907" lon="-0.05189">
        <ele>71</ele>
        <time>2018-09-22T12:43:54Z</time>
      </trkpt>
      <trkpt lat="48.37906" lon="-0.05188">
        <ele>71</ele>
        <time>2018-09-22T12:43:59Z</time>
      </trkpt>
      <trkpt lat="48.37905" lon="-0.05186">
        <ele>71</ele>
        <time>2018-09-22T12:44:03Z</time>
      </trkpt>
      <trkpt lat="48.37907" lon="-0.05186">
        <ele>69</ele>
        <time>2018-09-22T12:44:14Z</time>
      </trkpt>
      <trkpt lat="48.37907" lon="-0.05183">
        <ele>69</ele>
        <time>2018-09-22T12:44:45Z</time>
      </trkpt>
      <trkpt lat="48.37905" lon="-0.05177">
        <ele>69</ele>
        <time>2018-09-22T12:44:54Z</time>
      </trkpt>
      <trkpt lat="48.37905" lon="-0.05174">
        <ele>67</ele>
        <time>2018-09-22T12:45:26Z</time>
      </trkpt>
      <trkpt lat="48.37905" lon="-0.05172">
        <ele>67</ele>
        <time>2018-09-22T12:45:29Z</time>
      </trkpt>
      <trkpt lat="48.37905" lon="-0.05168">
        <ele>67</ele>
        <time>2018-09-22T12:45:32Z</time>
      </trkpt>
      <trkpt lat="48.37904" lon="-0.05159">
        <ele>67</ele>
        <time>2018-09-22T12:45:42Z</time>
      </trkpt>
      <trkpt lat="48.37895" lon="-0.05125">
        <ele>64</ele>
        <time>2018-09-22T12:46:07Z</time>
      </trkpt>
      <trkpt lat="48.37895" lon="-0.05121">
        <ele>65</ele>
        <time>2018-09-22T12:46:10Z</time>
      </trkpt>
      <trkpt lat="48.37895" lon="-0.05117">
        <ele>65</ele>
        <time>2018-09-22T12:46:13Z</time>
      </trkpt>
      <trkpt lat="48.37892" lon="-0.051">
        <ele>67</ele>
        <time>2018-09-22T12:46:56Z</time>
      </trkpt>
      <trkpt lat="48.37892" lon="-0.05096">
        <ele>67</ele>
        <time>2018-09-22T12:47:00Z</time>
      </trkpt>
      <trkpt lat="48.37894" lon="-0.05056">
        <ele>71</ele>
        <time>2018-09-22T12:47:30Z</time>
      </trkpt>
      <trkpt lat="48.37894" lon="-0.05047">
        <ele>71</ele>
        <time>2018-09-22T12:47:36Z</time>
      </trkpt>
      <trkpt lat="48.3789" lon="-0.0502">
        <ele>71</ele>
        <time>2018-09-22T12:47:53Z</time>
      </trkpt>
      <trkpt lat="48.3789" lon="-0.05017">
        <ele>72</ele>
        <time>2018-09-22T12:47:55Z</time>
      </trkpt>
      <trkpt lat="48.37889" lon="-0.04998">
        <ele>72</ele>
        <time>2018-09-22T12:48:07Z</time>
      </trkpt>
      <trkpt lat="48.37889" lon="-0.04994">
        <ele>73</ele>
        <time>2018-09-22T12:48:09Z</time>
      </trkpt>
      <trkpt lat="48.3789" lon="-0.04991">
        <ele>73</ele>
        <time>2018-09-22T12:48:11Z</time>
      </trkpt>
      <trkpt lat="48.37889" lon="-0.04988">
        <ele>73</ele>
        <time>2018-09-22T12:48:13Z</time>
      </trkpt>
      <trkpt lat="48.37889" lon="-0.04985">
        <ele>73</ele>
        <time>2018-09-22T12:48:15Z</time>
      </trkpt>
      <trkpt lat="48.37889" lon="-0.0498">
        <ele>73</ele>
        <time>2018-09-22T12:48:18Z</time>
      </trkpt>
      <trkpt lat="48.37889" lon="-0.04973">
        <ele>74</ele>
        <time>2018-09-22T12:48:22Z</time>
      </trkpt>
      <trkpt lat="48.37889" lon="-0.0497">
        <ele>75</ele>
        <time>2018-09-22T12:48:24Z</time>
      </trkpt>
      <trkpt lat="48.37889" lon="-0.04967">
        <ele>75</ele>
        <time>2018-09-22T12:48:26Z</time>
      </trkpt>
      <trkpt lat="48.37888" lon="-0.04964">
        <ele>75</ele>
        <time>2018-09-22T12:48:28Z</time>
      </trkpt>
      <trkpt lat="48.37888" lon="-0.0496">
        <ele>76</ele>
        <time>2018-09-22T12:48:30Z</time>
      </trkpt>
      <trkpt lat="48.3789" lon="-0.04945">
        <ele>76</ele>
        <time>2018-09-22T12:48:40Z</time>
      </trkpt>
      <trkpt lat="48.37889" lon="-0.04935">
        <ele>75</ele>
        <time>2018-09-22T12:48:46Z</time>
      </trkpt>
      <trkpt lat="48.37889" lon="-0.04932">
        <ele>75</ele>
        <time>2018-09-22T12:48:48Z</time>
      </trkpt>
      <trkpt lat="48.37889" lon="-0.04928">
        <ele>75</ele>
        <time>2018-09-22T12:48:50Z</time>
      </trkpt>
      <trkpt lat="48.37888" lon="-0.04895">
        <ele>75</ele>
        <time>2018-09-22T12:49:11Z</time>
      </trkpt>
      <trkpt lat="48.37887" lon="-0.04888">
        <ele>76</ele>
        <time>2018-09-22T12:49:15Z</time>
      </trkpt>
      <trkpt lat="48.37887" lon="-0.04884">
        <ele>76</ele>
        <time>2018-09-22T12:49:17Z</time>
      </trkpt>
      <trkpt lat="48.37882" lon="-0.04868">
        <ele>78</ele>
        <time>2018-09-22T12:49:28Z</time>
      </trkpt>
      <trkpt lat="48.37881" lon="-0.04864">
        <ele>79</ele>
        <time>2018-09-22T12:49:31Z</time>
      </trkpt>
      <trkpt lat="48.37879" lon="-0.04861">
        <ele>79</ele>
        <time>2018-09-22T12:49:34Z</time>
      </trkpt>
      <trkpt lat="48.37877" lon="-0.04858">
        <ele>79</ele>
        <time>2018-09-22T12:49:37Z</time>
      </trkpt>
      <trkpt lat="48.37874" lon="-0.04851">
        <ele>80</ele>
        <time>2018-09-22T12:49:43Z</time>
      </trkpt>
      <trkpt lat="48.37869" lon="-0.04847">
        <ele>77</ele>
        <time>2018-09-22T12:49:47Z</time>
      </trkpt>
      <trkpt lat="48.37867" lon="-0.04843">
        <ele>75</ele>
        <time>2018-09-22T12:49:50Z</time>
      </trkpt>
      <trkpt lat="48.37865" lon="-0.04841">
        <ele>75</ele>
        <time>2018-09-22T12:49:53Z</time>
      </trkpt>
      <trkpt lat="48.37863" lon="-0.0484">
        <ele>74</ele>
        <time>2018-09-22T12:49:56Z</time>
      </trkpt>
      <trkpt lat="48.37861" lon="-0.04838">
        <ele>74</ele>
        <time>2018-09-22T12:49:59Z</time>
      </trkpt>
      <trkpt lat="48.37855" lon="-0.04835">
        <ele>74</ele>
        <time>2018-09-22T12:50:05Z</time>
      </trkpt>
      <trkpt lat="48.37852" lon="-0.04835">
        <ele>74</ele>
        <time>2018-09-22T12:50:08Z</time>
      </trkpt>
      <trkpt lat="48.3784" lon="-0.04832">
        <ele>74</ele>
        <time>2018-09-22T12:50:19Z</time>
      </trkpt>
      <trkpt lat="48.37826" lon="-0.04823">
        <ele>76</ele>
        <time>2018-09-22T12:50:34Z</time>
      </trkpt>
      <trkpt lat="48.37824" lon="-0.04823">
        <ele>76</ele>
        <time>2018-09-22T12:50:36Z</time>
      </trkpt>
      <trkpt lat="48.37822" lon="-0.04824">
        <ele>77</ele>
        <time>2018-09-22T12:50:39Z</time>
      </trkpt>
      <trkpt lat="48.37802" lon="-0.0482">
        <ele>85</ele>
        <time>2018-09-22T12:51:04Z</time>
      </trkpt>
      <trkpt lat="48.37796" lon="-0.04821">
        <ele>85</ele>
        <time>2018-09-22T12:51:10Z</time>
      </trkpt>
      <trkpt lat="48.37791" lon="-0.04817">
        <ele>84</ele>
        <time>2018-09-22T12:51:18Z</time>
      </trkpt>
      <trkpt lat="48.37787" lon="-0.04817">
        <ele>84</ele>
        <time>2018-09-22T12:51:22Z</time>
      </trkpt>
      <trkpt lat="48.3778" lon="-0.04811">
        <ele>84</ele>
        <time>2018-09-22T12:51:31Z</time>
      </trkpt>
      <trkpt lat="48.37773" lon="-0.04802">
        <ele>80</ele>
        <time>2018-09-22T12:51:41Z</time>
      </trkpt>
      <trkpt lat="48.3777" lon="-0.04794">
        <ele>78</ele>
        <time>2018-09-22T12:51:47Z</time>
      </trkpt>
      <trkpt lat="48.37759" lon="-0.04779">
        <ele>75</ele>
        <time>2018-09-22T12:52:02Z</time>
      </trkpt>
      <trkpt lat="48.37758" lon="-0.04776">
        <ele>75</ele>
        <time>2018-09-22T12:52:05Z</time>
      </trkpt>
      <trkpt lat="48.37757" lon="-0.04772">
        <ele>75</ele>
        <time>2018-09-22T12:52:07Z</time>
      </trkpt>
      <trkpt lat="48.37751" lon="-0.04757">
        <ele>80</ele>
        <time>2018-09-22T12:52:19Z</time>
      </trkpt>
      <trkpt lat="48.3775" lon="-0.0473">
        <ele>84</ele>
        <time>2018-09-22T12:52:36Z</time>
      </trkpt>
      <trkpt lat="48.37751" lon="-0.04721">
        <ele>85</ele>
        <time>2018-09-22T12:52:42Z</time>
      </trkpt>
      <trkpt lat="48.3775" lon="-0.04703">
        <ele>89</ele>
        <time>2018-09-22T12:52:54Z</time>
      </trkpt>
      <trkpt lat="48.37755" lon="-0.04655">
        <ele>92</ele>
        <time>2018-09-22T12:53:25Z</time>
      </trkpt>
      <trkpt lat="48.37757" lon="-0.04638">
        <ele>93</ele>
        <time>2018-09-22T12:53:37Z</time>
      </trkpt>
      <trkpt lat="48.37756" lon="-0.04633">
        <ele>93</ele>
        <time>2018-09-22T12:53:41Z</time>
      </trkpt>
      <trkpt lat="48.37753" lon="-0.0463">
        <ele>92</ele>
        <time>2018-09-22T12:53:43Z</time>
      </trkpt>
      <trkpt lat="48.37751" lon="-0.04628">
        <ele>92</ele>
        <time>2018-09-22T12:53:46Z</time>
      </trkpt>
      <trkpt lat="48.37749" lon="-0.04627">
        <ele>92</ele>
        <time>2018-09-22T12:53:50Z</time>
      </trkpt>
      <trkpt lat="48.37746" lon="-0.04626">
        <ele>93</ele>
        <time>2018-09-22T12:53:54Z</time>
      </trkpt>
      <trkpt lat="48.37744" lon="-0.04626">
        <ele>94</ele>
        <time>2018-09-22T12:53:57Z</time>
      </trkpt>
      <trkpt lat="48.37729" lon="-0.04634">
        <ele>95</ele>
        <time>2018-09-22T12:54:17Z</time>
      </trkpt>
      <trkpt lat="48.37726" lon="-0.04636">
        <ele>94</ele>
        <time>2018-09-22T12:54:21Z</time>
      </trkpt>
      <trkpt lat="48.37716" lon="-0.04642">
        <ele>94</ele>
        <time>2018-09-22T12:54:31Z</time>
      </trkpt>
      <trkpt lat="48.37708" lon="-0.04647">
        <ele>95</ele>
        <time>2018-09-22T12:54:40Z</time>
      </trkpt>
      <trkpt lat="48.37704" lon="-0.04649">
        <ele>96</ele>
        <time>2018-09-22T12:54:43Z</time>
      </trkpt>
      <trkpt lat="48.37685" lon="-0.04655">
        <ele>92</ele>
        <time>2018-09-22T12:54:58Z</time>
      </trkpt>
      <trkpt lat="48.37677" lon="-0.0466">
        <ele>90</ele>
        <time>2018-09-22T12:55:42Z</time>
      </trkpt>
      <trkpt lat="48.37675" lon="-0.0466">
        <ele>91</ele>
        <time>2018-09-22T12:55:46Z</time>
      </trkpt>
      <trkpt lat="48.37663" lon="-0.04667">
        <ele>90</ele>
        <time>2018-09-22T12:56:00Z</time>
      </trkpt>
      <trkpt lat="48.37634" lon="-0.0469">
        <ele>101</ele>
        <time>2018-09-22T12:56:31Z</time>
      </trkpt>
      <trkpt lat="48.37626" lon="-0.04695">
        <ele>102</ele>
        <time>2018-09-22T12:56:39Z</time>
      </trkpt>
      <trkpt lat="48.37615" lon="-0.04704">
        <ele>104</ele>
        <time>2018-09-22T12:56:51Z</time>
      </trkpt>
      <trkpt lat="48.376" lon="-0.0471">
        <ele>106</ele>
        <time>2018-09-22T12:57:05Z</time>
      </trkpt>
      <trkpt lat="48.37598" lon="-0.04713">
        <ele>107</ele>
        <time>2018-09-22T12:57:08Z</time>
      </trkpt>
      <trkpt lat="48.37592" lon="-0.04717">
        <ele>108</ele>
        <time>2018-09-22T12:57:14Z</time>
      </trkpt>
      <trkpt lat="48.37567" lon="-0.04735">
        <ele>111</ele>
        <time>2018-09-22T12:57:44Z</time>
      </trkpt>
      <trkpt lat="48.37549" lon="-0.04751">
        <ele>106</ele>
        <time>2018-09-22T12:58:08Z</time>
      </trkpt>
      <trkpt lat="48.37528" lon="-0.04761">
        <ele>101</ele>
        <time>2018-09-22T12:58:23Z</time>
      </trkpt>
      <trkpt lat="48.37526" lon="-0.04761">
        <ele>101</ele>
        <time>2018-09-22T12:58:25Z</time>
      </trkpt>
      <trkpt lat="48.37497" lon="-0.04779">
        <ele>105</ele>
        <time>2018-09-22T12:58:56Z</time>
      </trkpt>
      <trkpt lat="48.37495" lon="-0.04782">
        <ele>105</ele>
        <time>2018-09-22T12:59:00Z</time>
      </trkpt>
      <trkpt lat="48.37493" lon="-0.04785">
        <ele>106</ele>
        <time>2018-09-22T12:59:04Z</time>
      </trkpt>
      <trkpt lat="48.3749" lon="-0.04786">
        <ele>108</ele>
        <time>2018-09-22T12:59:06Z</time>
      </trkpt>
      <trkpt lat="48.37489" lon="-0.04789">
        <ele>111</ele>
        <time>2018-09-22T12:59:13Z</time>
      </trkpt>
      <trkpt lat="48.37491" lon="-0.04804">
        <ele>113</ele>
        <time>2018-09-22T13:00:38Z</time>
      </trkpt>
      <trkpt lat="48.37483" lon="-0.0482">
        <ele>109</ele>
        <time>2018-09-22T13:01:00Z</time>
      </trkpt>
      <trkpt lat="48.3748" lon="-0.04824">
        <ele>108</ele>
        <time>2018-09-22T13:01:03Z</time>
      </trkpt>
      <trkpt lat="48.37476" lon="-0.04831">
        <ele>106</ele>
        <time>2018-09-22T13:01:09Z</time>
      </trkpt>
      <trkpt lat="48.37465" lon="-0.04841">
        <ele>103</ele>
        <time>2018-09-22T13:01:28Z</time>
      </trkpt>
      <trkpt lat="48.37461" lon="-0.04847">
        <ele>101</ele>
        <time>2018-09-22T13:01:50Z</time>
      </trkpt>
      <trkpt lat="48.3746" lon="-0.04855">
        <ele>102</ele>
        <time>2018-09-22T13:01:55Z</time>
      </trkpt>
      <trkpt lat="48.37467" lon="-0.04866">
        <ele>104</ele>
        <time>2018-09-22T13:02:39Z</time>
      </trkpt>
      <trkpt lat="48.37468" lon="-0.04866">
        <ele>105</ele>
        <time>2018-09-22T13:02:49Z</time>
      </trkpt>
      <trkpt lat="48.37471" lon="-0.04868">
        <ele>104</ele>
        <time>2018-09-22T13:02:58Z</time>
      </trkpt>
      <trkpt lat="48.37473" lon="-0.04867">
        <ele>103</ele>
        <time>2018-09-22T13:03:07Z</time>
      </trkpt>
      <trkpt lat="48.37475" lon="-0.04871">
        <ele>104</ele>
        <time>2018-09-22T13:04:00Z</time>
      </trkpt>
      <trkpt lat="48.37474" lon="-0.04876">
        <ele>104</ele>
        <time>2018-09-22T13:04:05Z</time>
      </trkpt>
      <trkpt lat="48.37474" lon="-0.0488">
        <ele>106</ele>
        <time>2018-09-22T13:04:12Z</time>
      </trkpt>
      <trkpt lat="48.37475" lon="-0.049">
        <ele>109</ele>
        <time>2018-09-22T13:04:29Z</time>
      </trkpt>
      <trkpt lat="48.37472" lon="-0.04905">
        <ele>110</ele>
        <time>2018-09-22T13:04:39Z</time>
      </trkpt>
      <trkpt lat="48.37469" lon="-0.04906">
        <ele>108</ele>
        <time>2018-09-22T13:04:50Z</time>
      </trkpt>
      <trkpt lat="48.37463" lon="-0.04909">
        <ele>107</ele>
        <time>2018-09-22T13:05:05Z</time>
      </trkpt>
      <trkpt lat="48.37454" lon="-0.0492">
        <ele>106</ele>
        <time>2018-09-22T13:05:20Z</time>
      </trkpt>
      <trkpt lat="48.37446" lon="-0.04929">
        <ele>109</ele>
        <time>2018-09-22T13:05:36Z</time>
      </trkpt>
      <trkpt lat="48.3744" lon="-0.04939">
        <ele>115</ele>
        <time>2018-09-22T13:05:57Z</time>
      </trkpt>
      <trkpt lat="48.37438" lon="-0.04944">
        <ele>117</ele>
        <time>2018-09-22T13:06:02Z</time>
      </trkpt>
      <trkpt lat="48.37432" lon="-0.04954">
        <ele>115</ele>
        <time>2018-09-22T13:06:22Z</time>
      </trkpt>
      <trkpt lat="48.37428" lon="-0.04957">
        <ele>113</ele>
        <time>2018-09-22T13:06:25Z</time>
      </trkpt>
      <trkpt lat="48.37419" lon="-0.04971">
        <ele>114</ele>
        <time>2018-09-22T13:06:45Z</time>
      </trkpt>
      <trkpt lat="48.37417" lon="-0.04974">
        <ele>116</ele>
        <time>2018-09-22T13:06:49Z</time>
      </trkpt>
      <trkpt lat="48.37416" lon="-0.04979">
        <ele>121</ele>
        <time>2018-09-22T13:07:00Z</time>
      </trkpt>
      <trkpt lat="48.37415" lon="-0.04984">
        <ele>123</ele>
        <time>2018-09-22T13:07:04Z</time>
      </trkpt>
      <trkpt lat="48.37407" lon="-0.04998">
        <ele>129</ele>
        <time>2018-09-22T13:07:19Z</time>
      </trkpt>
      <trkpt lat="48.37406" lon="-0.05018">
        <ele>131</ele>
        <time>2018-09-22T13:07:37Z</time>
      </trkpt>
      <trkpt lat="48.37407" lon="-0.05023">
        <ele>130</ele>
        <time>2018-09-22T13:07:43Z</time>
      </trkpt>
      <trkpt lat="48.37404" lon="-0.05038">
        <ele>130</ele>
        <time>2018-09-22T13:07:55Z</time>
      </trkpt>
      <trkpt lat="48.37402" lon="-0.05047">
        <ele>130</ele>
        <time>2018-09-22T13:08:00Z</time>
      </trkpt>
      <trkpt lat="48.37399" lon="-0.05065">
        <ele>125</ele>
        <time>2018-09-22T13:08:13Z</time>
      </trkpt>
      <trkpt lat="48.37398" lon="-0.05083">
        <ele>127</ele>
        <time>2018-09-22T13:08:26Z</time>
      </trkpt>
      <trkpt lat="48.37391" lon="-0.05116">
        <ele>133</ele>
        <time>2018-09-22T13:08:48Z</time>
      </trkpt>
      <trkpt lat="48.37382" lon="-0.05143">
        <ele>136</ele>
        <time>2018-09-22T13:09:11Z</time>
      </trkpt>
      <trkpt lat="48.37379" lon="-0.0515">
        <ele>136</ele>
        <time>2018-09-22T13:09:18Z</time>
      </trkpt>
      <trkpt lat="48.3738" lon="-0.05152">
        <ele>136</ele>
        <time>2018-09-22T13:09:26Z</time>
      </trkpt>
      <trkpt lat="48.37375" lon="-0.05158">
        <ele>136</ele>
        <time>2018-09-22T13:09:39Z</time>
      </trkpt>
      <trkpt lat="48.37374" lon="-0.05161">
        <ele>136</ele>
        <time>2018-09-22T13:09:42Z</time>
      </trkpt>
      <trkpt lat="48.3737" lon="-0.05174">
        <ele>137</ele>
        <time>2018-09-22T13:09:55Z</time>
      </trkpt>
      <trkpt lat="48.37359" lon="-0.052">
        <ele>140</ele>
        <time>2018-09-22T13:10:18Z</time>
      </trkpt>
      <trkpt lat="48.37339" lon="-0.05226">
        <ele>138</ele>
        <time>2018-09-22T13:10:46Z</time>
      </trkpt>
      <trkpt lat="48.37329" lon="-0.05235">
        <ele>138</ele>
        <time>2018-09-22T13:10:59Z</time>
      </trkpt>
      <trkpt lat="48.37302" lon="-0.05259">
        <ele>136</ele>
        <time>2018-09-22T13:11:31Z</time>
      </trkpt>
      <trkpt lat="48.37286" lon="-0.05278">
        <ele>138</ele>
        <time>2018-09-22T13:11:49Z</time>
      </trkpt>
      <trkpt lat="48.37275" lon="-0.05289">
        <ele>139</ele>
        <time>2018-09-22T13:11:59Z</time>
      </trkpt>
      <trkpt lat="48.37261" lon="-0.05299">
        <ele>139</ele>
        <time>2018-09-22T13:12:11Z</time>
      </trkpt>
      <trkpt lat="48.3726" lon="-0.05302">
        <ele>142</ele>
        <time>2018-09-22T13:12:19Z</time>
      </trkpt>
      <trkpt lat="48.37258" lon="-0.05303">
        <ele>143</ele>
        <time>2018-09-22T13:12:29Z</time>
      </trkpt>
      <trkpt lat="48.37244" lon="-0.05306">
        <ele>146</ele>
        <time>2018-09-22T13:12:42Z</time>
      </trkpt>
      <trkpt lat="48.3724" lon="-0.05305">
        <ele>146</ele>
        <time>2018-09-22T13:12:46Z</time>
      </trkpt>
      <trkpt lat="48.37221" lon="-0.05295">
        <ele>148</ele>
        <time>2018-09-22T13:13:04Z</time>
      </trkpt>
      <trkpt lat="48.37188" lon="-0.05296">
        <ele>148</ele>
        <time>2018-09-22T13:13:34Z</time>
      </trkpt>
      <trkpt lat="48.37168" lon="-0.05296">
        <ele>149</ele>
        <time>2018-09-22T13:13:52Z</time>
      </trkpt>
      <trkpt lat="48.37165" lon="-0.05295">
        <ele>148</ele>
        <time>2018-09-22T13:13:55Z</time>
      </trkpt>
      <trkpt lat="48.37162" lon="-0.05295">
        <ele>147</ele>
        <time>2018-09-22T13:13:58Z</time>
      </trkpt>
      <trkpt lat="48.3716" lon="-0.05293">
        <ele>146</ele>
        <time>2018-09-22T13:14:01Z</time>
      </trkpt>
      <trkpt lat="48.37128" lon="-0.05285">
        <ele>144</ele>
        <time>2018-09-22T13:14:23Z</time>
      </trkpt>
      <trkpt lat="48.37126" lon="-0.05284">
        <ele>144</ele>
        <time>2018-09-22T13:14:25Z</time>
      </trkpt>
      <trkpt lat="48.37121" lon="-0.05282">
        <ele>145</ele>
        <time>2018-09-22T13:14:29Z</time>
      </trkpt>
      <trkpt lat="48.37101" lon="-0.05273">
        <ele>148</ele>
        <time>2018-09-22T13:14:47Z</time>
      </trkpt>
      <trkpt lat="48.37099" lon="-0.05272">
        <ele>148</ele>
        <time>2018-09-22T13:14:50Z</time>
      </trkpt>
      <trkpt lat="48.3709" lon="-0.05268">
        <ele>149</ele>
        <time>2018-09-22T13:14:59Z</time>
      </trkpt>
      <trkpt lat="48.37081" lon="-0.05268">
        <ele>150</ele>
        <time>2018-09-22T13:15:08Z</time>
      </trkpt>
      <trkpt lat="48.37046" lon="-0.05282">
        <ele>154</ele>
        <time>2018-09-22T13:15:38Z</time>
      </trkpt>
      <trkpt lat="48.37012" lon="-0.05292">
        <ele>158</ele>
        <time>2018-09-22T13:16:08Z</time>
      </trkpt>
      <trkpt lat="48.37007" lon="-0.05293">
        <ele>158</ele>
        <time>2018-09-22T13:16:12Z</time>
      </trkpt>
      <trkpt lat="48.3699" lon="-0.05294">
        <ele>159</ele>
        <time>2018-09-22T13:16:27Z</time>
      </trkpt>
      <trkpt lat="48.36988" lon="-0.05294">
        <ele>159</ele>
        <time>2018-09-22T13:16:29Z</time>
      </trkpt>
      <trkpt lat="48.36985" lon="-0.05294">
        <ele>159</ele>
        <time>2018-09-22T13:16:31Z</time>
      </trkpt>
      <trkpt lat="48.36983" lon="-0.05293">
        <ele>159</ele>
        <time>2018-09-22T13:16:33Z</time>
      </trkpt>
      <trkpt lat="48.36967" lon="-0.05293">
        <ele>160</ele>
        <time>2018-09-22T13:16:47Z</time>
      </trkpt>
      <trkpt lat="48.36965" lon="-0.05293">
        <ele>160</ele>
        <time>2018-09-22T13:16:49Z</time>
      </trkpt>
      <trkpt lat="48.3696" lon="-0.05293">
        <ele>161</ele>
        <time>2018-09-22T13:16:53Z</time>
      </trkpt>
      <trkpt lat="48.36946" lon="-0.05297">
        <ele>162</ele>
        <time>2018-09-22T13:17:06Z</time>
      </trkpt>
      <trkpt lat="48.36944" lon="-0.05297">
        <ele>161</ele>
        <time>2018-09-22T13:17:08Z</time>
      </trkpt>
      <trkpt lat="48.36935" lon="-0.05298">
        <ele>161</ele>
        <time>2018-09-22T13:17:16Z</time>
      </trkpt>
      <trkpt lat="48.3691" lon="-0.05297">
        <ele>161</ele>
        <time>2018-09-22T13:17:40Z</time>
      </trkpt>
      <trkpt lat="48.36907" lon="-0.05297">
        <ele>161</ele>
        <time>2018-09-22T13:17:42Z</time>
      </trkpt>
      <trkpt lat="48.36902" lon="-0.05297">
        <ele>161</ele>
        <time>2018-09-22T13:17:47Z</time>
      </trkpt>
      <trkpt lat="48.36886" lon="-0.05295">
        <ele>160</ele>
        <time>2018-09-22T13:18:02Z</time>
      </trkpt>
      <trkpt lat="48.36884" lon="-0.05295">
        <ele>160</ele>
        <time>2018-09-22T13:18:04Z</time>
      </trkpt>
      <trkpt lat="48.3687" lon="-0.05295">
        <ele>159</ele>
        <time>2018-09-22T13:18:16Z</time>
      </trkpt>
      <trkpt lat="48.36845" lon="-0.05293">
        <ele>158</ele>
        <time>2018-09-22T13:18:38Z</time>
      </trkpt>
      <trkpt lat="48.36837" lon="-0.05293">
        <ele>158</ele>
        <time>2018-09-22T13:18:44Z</time>
      </trkpt>
      <trkpt lat="48.36835" lon="-0.05293">
        <ele>158</ele>
        <time>2018-09-22T13:18:46Z</time>
      </trkpt>
      <trkpt lat="48.36798" lon="-0.05296">
        <ele>163</ele>
        <time>2018-09-22T13:19:17Z</time>
      </trkpt>
      <trkpt lat="48.36763" lon="-0.05297">
        <ele>164</ele>
        <time>2018-09-22T13:19:48Z</time>
      </trkpt>
      <trkpt lat="48.36758" lon="-0.05297">
        <ele>164</ele>
        <time>2018-09-22T13:19:52Z</time>
      </trkpt>
      <trkpt lat="48.36755" lon="-0.05296">
        <ele>164</ele>
        <time>2018-09-22T13:19:55Z</time>
      </trkpt>
      <trkpt lat="48.36745" lon="-0.05298">
        <ele>163</ele>
        <time>2018-09-22T13:20:05Z</time>
      </trkpt>
      <trkpt lat="48.36738" lon="-0.05299">
        <ele>163</ele>
        <time>2018-09-22T13:20:12Z</time>
      </trkpt>
      <trkpt lat="48.3673" lon="-0.053">
        <ele>164</ele>
        <time>2018-09-22T13:20:19Z</time>
      </trkpt>
      <trkpt lat="48.36693" lon="-0.05299">
        <ele>162</ele>
        <time>2018-09-22T13:20:51Z</time>
      </trkpt>
      <trkpt lat="48.36683" lon="-0.05299">
        <ele>163</ele>
        <time>2018-09-22T13:20:59Z</time>
      </trkpt>
      <trkpt lat="48.36668" lon="-0.05298">
        <ele>161</ele>
        <time>2018-09-22T13:21:11Z</time>
      </trkpt>
      <trkpt lat="48.36659" lon="-0.05297">
        <ele>160</ele>
        <time>2018-09-22T13:21:19Z</time>
      </trkpt>
      <trkpt lat="48.36656" lon="-0.05298">
        <ele>159</ele>
        <time>2018-09-22T13:21:21Z</time>
      </trkpt>
      <trkpt lat="48.36644" lon="-0.05299">
        <ele>158</ele>
        <time>2018-09-22T13:21:31Z</time>
      </trkpt>
      <trkpt lat="48.36642" lon="-0.05299">
        <ele>158</ele>
        <time>2018-09-22T13:21:33Z</time>
      </trkpt>
      <trkpt lat="48.36615" lon="-0.05304">
        <ele>162</ele>
        <time>2018-09-22T13:21:55Z</time>
      </trkpt>
      <trkpt lat="48.36576" lon="-0.05322">
        <ele>168</ele>
        <time>2018-09-22T13:22:25Z</time>
      </trkpt>
      <trkpt lat="48.3654" lon="-0.0534">
        <ele>165</ele>
        <time>2018-09-22T13:22:55Z</time>
      </trkpt>
      <trkpt lat="48.36537" lon="-0.0534">
        <ele>165</ele>
        <time>2018-09-22T13:22:57Z</time>
      </trkpt>
      <trkpt lat="48.36535" lon="-0.05342">
        <ele>165</ele>
        <time>2018-09-22T13:22:59Z</time>
      </trkpt>
      <trkpt lat="48.36525" lon="-0.05346">
        <ele>164</ele>
        <time>2018-09-22T13:23:07Z</time>
      </trkpt>
      <trkpt lat="48.36517" lon="-0.0535">
        <ele>165</ele>
        <time>2018-09-22T13:23:15Z</time>
      </trkpt>
      <trkpt lat="48.365" lon="-0.05357">
        <ele>167</ele>
        <time>2018-09-22T13:23:31Z</time>
      </trkpt>
      <trkpt lat="48.36482" lon="-0.05368">
        <ele>164</ele>
        <time>2018-09-22T13:23:47Z</time>
      </trkpt>
      <trkpt lat="48.3648" lon="-0.05369">
        <ele>164</ele>
        <time>2018-09-22T13:23:49Z</time>
      </trkpt>
      <trkpt lat="48.36449" lon="-0.05397">
        <ele>167</ele>
        <time>2018-09-22T13:24:19Z</time>
      </trkpt>
      <trkpt lat="48.36418" lon="-0.05426">
        <ele>169</ele>
        <time>2018-09-22T13:24:49Z</time>
      </trkpt>
      <trkpt lat="48.36412" lon="-0.05431">
        <ele>169</ele>
        <time>2018-09-22T13:24:55Z</time>
      </trkpt>
      <trkpt lat="48.3641" lon="-0.05433">
        <ele>169</ele>
        <time>2018-09-22T13:24:57Z</time>
      </trkpt>
      <trkpt lat="48.36402" lon="-0.05441">
        <ele>169</ele>
        <time>2018-09-22T13:25:05Z</time>
      </trkpt>
      <trkpt lat="48.36398" lon="-0.05444">
        <ele>170</ele>
        <time>2018-09-22T13:25:09Z</time>
      </trkpt>
      <trkpt lat="48.36397" lon="-0.05447">
        <ele>170</ele>
        <time>2018-09-22T13:25:11Z</time>
      </trkpt>
      <trkpt lat="48.36365" lon="-0.05473">
        <ele>166</ele>
        <time>2018-09-22T13:25:42Z</time>
      </trkpt>
      <trkpt lat="48.36363" lon="-0.05475">
        <ele>166</ele>
        <time>2018-09-22T13:25:44Z</time>
      </trkpt>
      <trkpt lat="48.36349" lon="-0.05485">
        <ele>164</ele>
        <time>2018-09-22T13:25:57Z</time>
      </trkpt>
      <trkpt lat="48.36346" lon="-0.05486">
        <ele>164</ele>
        <time>2018-09-22T13:26:00Z</time>
      </trkpt>
      <trkpt lat="48.3634" lon="-0.05489">
        <ele>164</ele>
        <time>2018-09-22T13:26:06Z</time>
      </trkpt>
      <trkpt lat="48.36338" lon="-0.05489">
        <ele>164</ele>
        <time>2018-09-22T13:26:08Z</time>
      </trkpt>
      <trkpt lat="48.36336" lon="-0.05491">
        <ele>164</ele>
        <time>2018-09-22T13:26:11Z</time>
      </trkpt>
      <trkpt lat="48.3633" lon="-0.05492">
        <ele>163</ele>
        <time>2018-09-22T13:26:16Z</time>
      </trkpt>
      <trkpt lat="48.36328" lon="-0.05493">
        <ele>162</ele>
        <time>2018-09-22T13:26:18Z</time>
      </trkpt>
      <trkpt lat="48.36295" lon="-0.05502">
        <ele>160</ele>
        <time>2018-09-22T13:26:46Z</time>
      </trkpt>
      <trkpt lat="48.3629" lon="-0.05501">
        <ele>160</ele>
        <time>2018-09-22T13:26:50Z</time>
      </trkpt>
      <trkpt lat="48.36287" lon="-0.05501">
        <ele>160</ele>
        <time>2018-09-22T13:26:52Z</time>
      </trkpt>
      <trkpt lat="48.36282" lon="-0.05502">
        <ele>160</ele>
        <time>2018-09-22T13:26:57Z</time>
      </trkpt>
      <trkpt lat="48.36275" lon="-0.05505">
        <ele>159</ele>
        <time>2018-09-22T13:27:03Z</time>
      </trkpt>
      <trkpt lat="48.36266" lon="-0.05507">
        <ele>158</ele>
        <time>2018-09-22T13:27:11Z</time>
      </trkpt>
      <trkpt lat="48.36263" lon="-0.05508">
        <ele>159</ele>
        <time>2018-09-22T13:27:14Z</time>
      </trkpt>
      <trkpt lat="48.36236" lon="-0.05513">
        <ele>156</ele>
        <time>2018-09-22T13:27:36Z</time>
      </trkpt>
      <trkpt lat="48.36226" lon="-0.05511">
        <ele>156</ele>
        <time>2018-09-22T13:27:44Z</time>
      </trkpt>
      <trkpt lat="48.36223" lon="-0.0551">
        <ele>157</ele>
        <time>2018-09-22T13:27:46Z</time>
      </trkpt>
      <trkpt lat="48.3621" lon="-0.05499">
        <ele>161</ele>
        <time>2018-09-22T13:27:59Z</time>
      </trkpt>
      <trkpt lat="48.36202" lon="-0.05488">
        <ele>161</ele>
        <time>2018-09-22T13:28:09Z</time>
      </trkpt>
      <trkpt lat="48.36199" lon="-0.05481">
        <ele>161</ele>
        <time>2018-09-22T13:28:14Z</time>
      </trkpt>
      <trkpt lat="48.36187" lon="-0.05462">
        <ele>161</ele>
        <time>2018-09-22T13:28:29Z</time>
      </trkpt>
      <trkpt lat="48.36178" lon="-0.0545">
        <ele>161</ele>
        <time>2018-09-22T13:28:39Z</time>
      </trkpt>
      <trkpt lat="48.36176" lon="-0.05448">
        <ele>160</ele>
        <time>2018-09-22T13:28:41Z</time>
      </trkpt>
      <trkpt lat="48.36146" lon="-0.05411">
        <ele>156</ele>
        <time>2018-09-22T13:29:11Z</time>
      </trkpt>
      <trkpt lat="48.36136" lon="-0.05397">
        <ele>157</ele>
        <time>2018-09-22T13:29:21Z</time>
      </trkpt>
      <trkpt lat="48.36135" lon="-0.05395">
        <ele>157</ele>
        <time>2018-09-22T13:29:23Z</time>
      </trkpt>
      <trkpt lat="48.36109" lon="-0.05359">
        <ele>158</ele>
        <time>2018-09-22T13:29:54Z</time>
      </trkpt>
      <trkpt lat="48.36103" lon="-0.05352">
        <ele>158</ele>
        <time>2018-09-22T13:30:00Z</time>
      </trkpt>
      <trkpt lat="48.36102" lon="-0.05349">
        <ele>158</ele>
        <time>2018-09-22T13:30:02Z</time>
      </trkpt>
      <trkpt lat="48.361" lon="-0.05347">
        <ele>157</ele>
        <time>2018-09-22T13:30:04Z</time>
      </trkpt>
      <trkpt lat="48.36099" lon="-0.05345">
        <ele>157</ele>
        <time>2018-09-22T13:30:06Z</time>
      </trkpt>
      <trkpt lat="48.36075" lon="-0.05315">
        <ele>156</ele>
        <time>2018-09-22T13:30:32Z</time>
      </trkpt>
      <trkpt lat="48.36072" lon="-0.05309">
        <ele>155</ele>
        <time>2018-09-22T13:30:36Z</time>
      </trkpt>
      <trkpt lat="48.3605" lon="-0.05278">
        <ele>154</ele>
        <time>2018-09-22T13:31:00Z</time>
      </trkpt>
      <trkpt lat="48.36047" lon="-0.05273">
        <ele>154</ele>
        <time>2018-09-22T13:31:04Z</time>
      </trkpt>
      <trkpt lat="48.36035" lon="-0.05256">
        <ele>153</ele>
        <time>2018-09-22T13:31:18Z</time>
      </trkpt>
      <trkpt lat="48.36032" lon="-0.05254">
        <ele>153</ele>
        <time>2018-09-22T13:31:20Z</time>
      </trkpt>
      <trkpt lat="48.36027" lon="-0.05252">
        <ele>152</ele>
        <time>2018-09-22T13:31:24Z</time>
      </trkpt>
      <trkpt lat="48.36022" lon="-0.05253">
        <ele>153</ele>
        <time>2018-09-22T13:31:28Z</time>
      </trkpt>
      <trkpt lat="48.3602" lon="-0.05253">
        <ele>153</ele>
        <time>2018-09-22T13:31:31Z</time>
      </trkpt>
      <trkpt lat="48.36018" lon="-0.05254">
        <ele>153</ele>
        <time>2018-09-22T13:31:35Z</time>
      </trkpt>
      <trkpt lat="48.36015" lon="-0.05256">
        <ele>155</ele>
        <time>2018-09-22T13:33:08Z</time>
      </trkpt>
      <trkpt lat="48.36012" lon="-0.0526">
        <ele>158</ele>
        <time>2018-09-22T13:33:14Z</time>
      </trkpt>
      <trkpt lat="48.35991" lon="-0.05299">
        <ele>161</ele>
        <time>2018-09-22T13:33:44Z</time>
      </trkpt>
      <trkpt lat="48.35989" lon="-0.05302">
        <ele>161</ele>
        <time>2018-09-22T13:33:46Z</time>
      </trkpt>
      <trkpt lat="48.35988" lon="-0.05304">
        <ele>160</ele>
        <time>2018-09-22T13:33:48Z</time>
      </trkpt>
      <trkpt lat="48.35984" lon="-0.05315">
        <ele>159</ele>
        <time>2018-09-22T13:33:55Z</time>
      </trkpt>
      <trkpt lat="48.35982" lon="-0.05318">
        <ele>159</ele>
        <time>2018-09-22T13:33:57Z</time>
      </trkpt>
      <trkpt lat="48.3598" lon="-0.05321">
        <ele>158</ele>
        <time>2018-09-22T13:33:59Z</time>
      </trkpt>
      <trkpt lat="48.35973" lon="-0.05331">
        <ele>156</ele>
        <time>2018-09-22T13:34:07Z</time>
      </trkpt>
      <trkpt lat="48.35962" lon="-0.05353">
        <ele>153</ele>
        <time>2018-09-22T13:34:22Z</time>
      </trkpt>
      <trkpt lat="48.35947" lon="-0.05372">
        <ele>146</ele>
        <time>2018-09-22T13:34:43Z</time>
      </trkpt>
      <trkpt lat="48.35943" lon="-0.05379">
        <ele>148</ele>
        <time>2018-09-22T13:34:50Z</time>
      </trkpt>
      <trkpt lat="48.35935" lon="-0.05394">
        <ele>151</ele>
        <time>2018-09-22T13:35:02Z</time>
      </trkpt>
      <trkpt lat="48.35925" lon="-0.0541">
        <ele>151</ele>
        <time>2018-09-22T13:35:17Z</time>
      </trkpt>
      <trkpt lat="48.35924" lon="-0.05415">
        <ele>150</ele>
        <time>2018-09-22T13:35:21Z</time>
      </trkpt>
      <trkpt lat="48.35925" lon="-0.05418">
        <ele>149</ele>
        <time>2018-09-22T13:35:33Z</time>
      </trkpt>
      <trkpt lat="48.35926" lon="-0.0542">
        <ele>149</ele>
        <time>2018-09-22T13:36:06Z</time>
      </trkpt>
      <trkpt lat="48.35927" lon="-0.05427">
        <ele>147</ele>
        <time>2018-09-22T13:41:08Z</time>
      </trkpt>
      <trkpt lat="48.35928" lon="-0.05433">
        <ele>145</ele>
        <time>2018-09-22T13:41:14Z</time>
      </trkpt>
      <trkpt lat="48.3593" lon="-0.05433">
        <ele>145</ele>
        <time>2018-09-22T13:41:24Z</time>
      </trkpt>
      <trkpt lat="48.35929" lon="-0.05436">
        <ele>145</ele>
        <time>2018-09-22T13:41:28Z</time>
      </trkpt>
      <trkpt lat="48.35947" lon="-0.05459">
        <ele>147</ele>
        <time>2018-09-22T13:41:51Z</time>
      </trkpt>
      <trkpt lat="48.35967" lon="-0.05476">
        <ele>148</ele>
        <time>2018-09-22T13:42:14Z</time>
      </trkpt>
      <trkpt lat="48.3597" lon="-0.05478">
        <ele>149</ele>
        <time>2018-09-22T13:42:17Z</time>
      </trkpt>
      <trkpt lat="48.35976" lon="-0.05483">
        <ele>150</ele>
        <time>2018-09-22T13:42:24Z</time>
      </trkpt>
      <trkpt lat="48.35978" lon="-0.05487">
        <ele>150</ele>
        <time>2018-09-22T13:42:27Z</time>
      </trkpt>
      <trkpt lat="48.35982" lon="-0.05495">
        <ele>151</ele>
        <time>2018-09-22T13:42:33Z</time>
      </trkpt>
      <trkpt lat="48.35987" lon="-0.05507">
        <ele>151</ele>
        <time>2018-09-22T13:42:41Z</time>
      </trkpt>
      <trkpt lat="48.35999" lon="-0.05556">
        <ele>149</ele>
        <time>2018-09-22T13:43:11Z</time>
      </trkpt>
      <trkpt lat="48.36" lon="-0.05564">
        <ele>148</ele>
        <time>2018-09-22T13:43:15Z</time>
      </trkpt>
      <trkpt lat="48.36002" lon="-0.05574">
        <ele>148</ele>
        <time>2018-09-22T13:43:21Z</time>
      </trkpt>
      <trkpt lat="48.36006" lon="-0.05589">
        <ele>149</ele>
        <time>2018-09-22T13:43:29Z</time>
      </trkpt>
      <trkpt lat="48.36008" lon="-0.0561">
        <ele>151</ele>
        <time>2018-09-22T13:43:41Z</time>
      </trkpt>
      <trkpt lat="48.36006" lon="-0.0562">
        <ele>152</ele>
        <time>2018-09-22T13:43:47Z</time>
      </trkpt>
      <trkpt lat="48.36001" lon="-0.0563">
        <ele>153</ele>
        <time>2018-09-22T13:43:55Z</time>
      </trkpt>
      <trkpt lat="48.35996" lon="-0.0564">
        <ele>153</ele>
        <time>2018-09-22T13:44:03Z</time>
      </trkpt>
      <trkpt lat="48.3599" lon="-0.05653">
        <ele>154</ele>
        <time>2018-09-22T13:44:17Z</time>
      </trkpt>
      <trkpt lat="48.3599" lon="-0.05655">
        <ele>154</ele>
        <time>2018-09-22T13:44:19Z</time>
      </trkpt>
      <trkpt lat="48.35989" lon="-0.05662">
        <ele>154</ele>
        <time>2018-09-22T13:44:24Z</time>
      </trkpt>
      <trkpt lat="48.35986" lon="-0.05671">
        <ele>155</ele>
        <time>2018-09-22T13:44:30Z</time>
      </trkpt>
      <trkpt lat="48.35986" lon="-0.05677">
        <ele>156</ele>
        <time>2018-09-22T13:44:35Z</time>
      </trkpt>
      <trkpt lat="48.35987" lon="-0.05713">
        <ele>158</ele>
        <time>2018-09-22T13:44:55Z</time>
      </trkpt>
      <trkpt lat="48.35986" lon="-0.0572">
        <ele>158</ele>
        <time>2018-09-22T13:44:59Z</time>
      </trkpt>
      <trkpt lat="48.35985" lon="-0.05723">
        <ele>159</ele>
        <time>2018-09-22T13:45:01Z</time>
      </trkpt>
      <trkpt lat="48.35981" lon="-0.05741">
        <ele>158</ele>
        <time>2018-09-22T13:45:11Z</time>
      </trkpt>
      <trkpt lat="48.35963" lon="-0.05779">
        <ele>159</ele>
        <time>2018-09-22T13:45:36Z</time>
      </trkpt>
      <trkpt lat="48.3596" lon="-0.05784">
        <ele>160</ele>
        <time>2018-09-22T13:45:40Z</time>
      </trkpt>
      <trkpt lat="48.35939" lon="-0.05827">
        <ele>163</ele>
        <time>2018-09-22T13:46:10Z</time>
      </trkpt>
      <trkpt lat="48.35935" lon="-0.05841">
        <ele>164</ele>
        <time>2018-09-22T13:46:18Z</time>
      </trkpt>
      <trkpt lat="48.35926" lon="-0.05875">
        <ele>165</ele>
        <time>2018-09-22T13:46:38Z</time>
      </trkpt>
      <trkpt lat="48.35924" lon="-0.05879">
        <ele>166</ele>
        <time>2018-09-22T13:46:40Z</time>
      </trkpt>
      <trkpt lat="48.35924" lon="-0.05882">
        <ele>166</ele>
        <time>2018-09-22T13:46:42Z</time>
      </trkpt>
      <trkpt lat="48.35923" lon="-0.05889">
        <ele>166</ele>
        <time>2018-09-22T13:46:46Z</time>
      </trkpt>
      <trkpt lat="48.35919" lon="-0.05903">
        <ele>166</ele>
        <time>2018-09-22T13:46:54Z</time>
      </trkpt>
      <trkpt lat="48.35914" lon="-0.05925">
        <ele>166</ele>
        <time>2018-09-22T13:47:08Z</time>
      </trkpt>
      <trkpt lat="48.35913" lon="-0.05929">
        <ele>166</ele>
        <time>2018-09-22T13:47:10Z</time>
      </trkpt>
      <trkpt lat="48.35902" lon="-0.05971">
        <ele>166</ele>
        <time>2018-09-22T13:47:34Z</time>
      </trkpt>
      <trkpt lat="48.35895" lon="-0.05991">
        <ele>165</ele>
        <time>2018-09-22T13:47:46Z</time>
      </trkpt>
      <trkpt lat="48.35894" lon="-0.05994">
        <ele>164</ele>
        <time>2018-09-22T13:47:49Z</time>
      </trkpt>
      <trkpt lat="48.35877" lon="-0.06036">
        <ele>164</ele>
        <time>2018-09-22T13:48:20Z</time>
      </trkpt>
      <trkpt lat="48.35866" lon="-0.0607">
        <ele>165</ele>
        <time>2018-09-22T13:48:38Z</time>
      </trkpt>
      <trkpt lat="48.35865" lon="-0.06073">
        <ele>164</ele>
        <time>2018-09-22T13:48:40Z</time>
      </trkpt>
      <trkpt lat="48.3586" lon="-0.06091">
        <ele>163</ele>
        <time>2018-09-22T13:48:50Z</time>
      </trkpt>
      <trkpt lat="48.35858" lon="-0.06097">
        <ele>162</ele>
        <time>2018-09-22T13:48:54Z</time>
      </trkpt>
      <trkpt lat="48.35857" lon="-0.06104">
        <ele>162</ele>
        <time>2018-09-22T13:48:58Z</time>
      </trkpt>
      <trkpt lat="48.35855" lon="-0.0611">
        <ele>163</ele>
        <time>2018-09-22T13:49:02Z</time>
      </trkpt>
      <trkpt lat="48.35855" lon="-0.06116">
        <ele>163</ele>
        <time>2018-09-22T13:49:17Z</time>
      </trkpt>
      <trkpt lat="48.35857" lon="-0.06119">
        <ele>163</ele>
        <time>2018-09-22T13:50:00Z</time>
      </trkpt>
      <trkpt lat="48.3587" lon="-0.06137">
        <ele>159</ele>
        <time>2018-09-22T13:50:19Z</time>
      </trkpt>
      <trkpt lat="48.35897" lon="-0.06155">
        <ele>153</ele>
        <time>2018-09-22T13:50:49Z</time>
      </trkpt>
      <trkpt lat="48.35917" lon="-0.06152">
        <ele>151</ele>
        <time>2018-09-22T13:51:08Z</time>
      </trkpt>
      <trkpt lat="48.35928" lon="-0.06151">
        <ele>153</ele>
        <time>2018-09-22T13:51:19Z</time>
      </trkpt>
      <trkpt lat="48.3596" lon="-0.06139">
        <ele>153</ele>
        <time>2018-09-22T13:51:49Z</time>
      </trkpt>
      <trkpt lat="48.35963" lon="-0.06138">
        <ele>153</ele>
        <time>2018-09-22T13:51:52Z</time>
      </trkpt>
      <trkpt lat="48.35966" lon="-0.06137">
        <ele>154</ele>
        <time>2018-09-22T13:51:55Z</time>
      </trkpt>
      <trkpt lat="48.35969" lon="-0.06136">
        <ele>154</ele>
        <time>2018-09-22T13:51:59Z</time>
      </trkpt>
      <trkpt lat="48.35976" lon="-0.06138">
        <ele>152</ele>
        <time>2018-09-22T13:52:06Z</time>
      </trkpt>
      <trkpt lat="48.36014" lon="-0.06124">
        <ele>153</ele>
        <time>2018-09-22T13:52:38Z</time>
      </trkpt>
      <trkpt lat="48.36024" lon="-0.06117">
        <ele>156</ele>
        <time>2018-09-22T13:52:49Z</time>
      </trkpt>
      <trkpt lat="48.36032" lon="-0.06117">
        <ele>159</ele>
        <time>2018-09-22T13:52:56Z</time>
      </trkpt>
      <trkpt lat="48.36039" lon="-0.06121">
        <ele>160</ele>
        <time>2018-09-22T13:53:04Z</time>
      </trkpt>
      <trkpt lat="48.36041" lon="-0.06123">
        <ele>160</ele>
        <time>2018-09-22T13:53:07Z</time>
      </trkpt>
      <trkpt lat="48.36043" lon="-0.06124">
        <ele>161</ele>
        <time>2018-09-22T13:53:11Z</time>
      </trkpt>
      <trkpt lat="48.36044" lon="-0.06126">
        <ele>162</ele>
        <time>2018-09-22T13:53:20Z</time>
      </trkpt>
      <trkpt lat="48.36049" lon="-0.0612">
        <ele>163</ele>
        <time>2018-09-22T13:55:31Z</time>
      </trkpt>
      <trkpt lat="48.3606" lon="-0.06108">
        <ele>163</ele>
        <time>2018-09-22T13:55:46Z</time>
      </trkpt>
      <trkpt lat="48.36062" lon="-0.06106">
        <ele>163</ele>
        <time>2018-09-22T13:55:49Z</time>
      </trkpt>
      <trkpt lat="48.36077" lon="-0.06093">
        <ele>163</ele>
        <time>2018-09-22T13:56:04Z</time>
      </trkpt>
      <trkpt lat="48.36111" lon="-0.06077">
        <ele>164</ele>
        <time>2018-09-22T13:56:34Z</time>
      </trkpt>
      <trkpt lat="48.36145" lon="-0.06069">
        <ele>165</ele>
        <time>2018-09-22T13:57:04Z</time>
      </trkpt>
      <trkpt lat="48.36155" lon="-0.06069">
        <ele>165</ele>
        <time>2018-09-22T13:57:12Z</time>
      </trkpt>
      <trkpt lat="48.36157" lon="-0.06069">
        <ele>165</ele>
        <time>2018-09-22T13:57:14Z</time>
      </trkpt>
      <trkpt lat="48.36178" lon="-0.06071">
        <ele>166</ele>
        <time>2018-09-22T13:57:32Z</time>
      </trkpt>
      <trkpt lat="48.3618" lon="-0.06072">
        <ele>166</ele>
        <time>2018-09-22T13:57:34Z</time>
      </trkpt>
      <trkpt lat="48.36182" lon="-0.06072">
        <ele>166</ele>
        <time>2018-09-22T13:57:36Z</time>
      </trkpt>
      <trkpt lat="48.36209" lon="-0.06076">
        <ele>168</ele>
        <time>2018-09-22T13:58:00Z</time>
      </trkpt>
      <trkpt lat="48.36223" lon="-0.06077">
        <ele>168</ele>
        <time>2018-09-22T13:58:12Z</time>
      </trkpt>
      <trkpt lat="48.36225" lon="-0.06078">
        <ele>168</ele>
        <time>2018-09-22T13:58:14Z</time>
      </trkpt>
      <trkpt lat="48.36259" lon="-0.06084">
        <ele>170</ele>
        <time>2018-09-22T13:58:44Z</time>
      </trkpt>
      <trkpt lat="48.36277" lon="-0.06088">
        <ele>171</ele>
        <time>2018-09-22T13:59:00Z</time>
      </trkpt>
      <trkpt lat="48.36279" lon="-0.06089">
        <ele>171</ele>
        <time>2018-09-22T13:59:02Z</time>
      </trkpt>
      <trkpt lat="48.36284" lon="-0.0609">
        <ele>172</ele>
        <time>2018-09-22T13:59:06Z</time>
      </trkpt>
      <trkpt lat="48.3629" lon="-0.06094">
        <ele>172</ele>
        <time>2018-09-22T13:59:12Z</time>
      </trkpt>
      <trkpt lat="48.36293" lon="-0.06099">
        <ele>172</ele>
        <time>2018-09-22T13:59:16Z</time>
      </trkpt>
      <trkpt lat="48.36295" lon="-0.06101">
        <ele>171</ele>
        <time>2018-09-22T13:59:18Z</time>
      </trkpt>
      <trkpt lat="48.36296" lon="-0.06109">
        <ele>172</ele>
        <time>2018-09-22T13:59:24Z</time>
      </trkpt>
      <trkpt lat="48.36294" lon="-0.06115">
        <ele>173</ele>
        <time>2018-09-22T13:59:30Z</time>
      </trkpt>
      <trkpt lat="48.36294" lon="-0.06122">
        <ele>173</ele>
        <time>2018-09-22T13:59:34Z</time>
      </trkpt>
      <trkpt lat="48.36286" lon="-0.06162">
        <ele>176</ele>
        <time>2018-09-22T14:00:00Z</time>
      </trkpt>
      <trkpt lat="48.36283" lon="-0.062">
        <ele>177</ele>
        <time>2018-09-22T14:00:22Z</time>
      </trkpt>
      <trkpt lat="48.36283" lon="-0.06204">
        <ele>176</ele>
        <time>2018-09-22T14:00:24Z</time>
      </trkpt>
      <trkpt lat="48.36281" lon="-0.06256">
        <ele>175</ele>
        <time>2018-09-22T14:00:54Z</time>
      </trkpt>
      <trkpt lat="48.36278" lon="-0.06273">
        <ele>177</ele>
        <time>2018-09-22T14:01:04Z</time>
      </trkpt>
      <trkpt lat="48.36275" lon="-0.06281">
        <ele>177</ele>
        <time>2018-09-22T14:01:10Z</time>
      </trkpt>
      <trkpt lat="48.36272" lon="-0.06286">
        <ele>177</ele>
        <time>2018-09-22T14:01:14Z</time>
      </trkpt>
      <trkpt lat="48.3627" lon="-0.06288">
        <ele>177</ele>
        <time>2018-09-22T14:01:16Z</time>
      </trkpt>
      <trkpt lat="48.36267" lon="-0.06293">
        <ele>177</ele>
        <time>2018-09-22T14:01:20Z</time>
      </trkpt>
      <trkpt lat="48.36248" lon="-0.0631">
        <ele>173</ele>
        <time>2018-09-22T14:01:40Z</time>
      </trkpt>
      <trkpt lat="48.36247" lon="-0.06312">
        <ele>173</ele>
        <time>2018-09-22T14:01:42Z</time>
      </trkpt>
      <trkpt lat="48.36245" lon="-0.06314">
        <ele>172</ele>
        <time>2018-09-22T14:01:44Z</time>
      </trkpt>
      <trkpt lat="48.36241" lon="-0.06317">
        <ele>172</ele>
        <time>2018-09-22T14:01:48Z</time>
      </trkpt>
      <trkpt lat="48.36239" lon="-0.06319">
        <ele>172</ele>
        <time>2018-09-22T14:01:50Z</time>
      </trkpt>
      <trkpt lat="48.36232" lon="-0.06323">
        <ele>172</ele>
        <time>2018-09-22T14:01:56Z</time>
      </trkpt>
      <trkpt lat="48.36226" lon="-0.06329">
        <ele>172</ele>
        <time>2018-09-22T14:02:02Z</time>
      </trkpt>
      <trkpt lat="48.36225" lon="-0.06332">
        <ele>172</ele>
        <time>2018-09-22T14:02:04Z</time>
      </trkpt>
      <trkpt lat="48.36222" lon="-0.06334">
        <ele>171</ele>
        <time>2018-09-22T14:02:06Z</time>
      </trkpt>
      <trkpt lat="48.36216" lon="-0.06339">
        <ele>172</ele>
        <time>2018-09-22T14:02:12Z</time>
      </trkpt>
      <trkpt lat="48.36203" lon="-0.06354">
        <ele>171</ele>
        <time>2018-09-22T14:02:26Z</time>
      </trkpt>
      <trkpt lat="48.36201" lon="-0.06357">
        <ele>171</ele>
        <time>2018-09-22T14:02:28Z</time>
      </trkpt>
      <trkpt lat="48.36186" lon="-0.06379">
        <ele>172</ele>
        <time>2018-09-22T14:02:45Z</time>
      </trkpt>
      <trkpt lat="48.36185" lon="-0.06381">
        <ele>172</ele>
        <time>2018-09-22T14:02:47Z</time>
      </trkpt>
      <trkpt lat="48.36183" lon="-0.06385">
        <ele>172</ele>
        <time>2018-09-22T14:02:50Z</time>
      </trkpt>
      <trkpt lat="48.36181" lon="-0.06388">
        <ele>172</ele>
        <time>2018-09-22T14:02:52Z</time>
      </trkpt>
      <trkpt lat="48.36176" lon="-0.06396">
        <ele>172</ele>
        <time>2018-09-22T14:02:59Z</time>
      </trkpt>
      <trkpt lat="48.36172" lon="-0.06406">
        <ele>171</ele>
        <time>2018-09-22T14:03:05Z</time>
      </trkpt>
      <trkpt lat="48.36168" lon="-0.06414">
        <ele>170</ele>
        <time>2018-09-22T14:03:11Z</time>
      </trkpt>
      <trkpt lat="48.36164" lon="-0.06427">
        <ele>168</ele>
        <time>2018-09-22T14:03:19Z</time>
      </trkpt>
      <trkpt lat="48.36159" lon="-0.06447">
        <ele>168</ele>
        <time>2018-09-22T14:03:32Z</time>
      </trkpt>
      <trkpt lat="48.36155" lon="-0.06478">
        <ele>169</ele>
        <time>2018-09-22T14:03:49Z</time>
      </trkpt>
      <trkpt lat="48.36155" lon="-0.06482">
        <ele>169</ele>
        <time>2018-09-22T14:03:51Z</time>
      </trkpt>
      <trkpt lat="48.36156" lon="-0.06542">
        <ele>170</ele>
        <time>2018-09-22T14:04:21Z</time>
      </trkpt>
      <trkpt lat="48.36162" lon="-0.06594">
        <ele>169</ele>
        <time>2018-09-22T14:04:51Z</time>
      </trkpt>
      <trkpt lat="48.36166" lon="-0.06635">
        <ele>169</ele>
        <time>2018-09-22T14:05:15Z</time>
      </trkpt>
      <trkpt lat="48.36167" lon="-0.06638">
        <ele>169</ele>
        <time>2018-09-22T14:05:17Z</time>
      </trkpt>
      <trkpt lat="48.3617" lon="-0.06659">
        <ele>168</ele>
        <time>2018-09-22T14:05:29Z</time>
      </trkpt>
      <trkpt lat="48.36178" lon="-0.06708">
        <ele>167</ele>
        <time>2018-09-22T14:05:57Z</time>
      </trkpt>
      <trkpt lat="48.36179" lon="-0.06719">
        <ele>168</ele>
        <time>2018-09-22T14:06:03Z</time>
      </trkpt>
      <trkpt lat="48.36182" lon="-0.06732">
        <ele>167</ele>
        <time>2018-09-22T14:06:11Z</time>
      </trkpt>
      <trkpt lat="48.36181" lon="-0.06746">
        <ele>166</ele>
        <time>2018-09-22T14:06:19Z</time>
      </trkpt>
      <trkpt lat="48.36184" lon="-0.06759">
        <ele>165</ele>
        <time>2018-09-22T14:06:27Z</time>
      </trkpt>
      <trkpt lat="48.36184" lon="-0.06763">
        <ele>165</ele>
        <time>2018-09-22T14:06:29Z</time>
      </trkpt>
      <trkpt lat="48.36185" lon="-0.06769">
        <ele>165</ele>
        <time>2018-09-22T14:06:33Z</time>
      </trkpt>
      <trkpt lat="48.36186" lon="-0.06773">
        <ele>164</ele>
        <time>2018-09-22T14:06:35Z</time>
      </trkpt>
      <trkpt lat="48.36196" lon="-0.06823">
        <ele>164</ele>
        <time>2018-09-22T14:07:05Z</time>
      </trkpt>
      <trkpt lat="48.36198" lon="-0.06833">
        <ele>162</ele>
        <time>2018-09-22T14:07:11Z</time>
      </trkpt>
      <trkpt lat="48.36199" lon="-0.06844">
        <ele>162</ele>
        <time>2018-09-22T14:07:17Z</time>
      </trkpt>
      <trkpt lat="48.362" lon="-0.06851">
        <ele>162</ele>
        <time>2018-09-22T14:07:21Z</time>
      </trkpt>
      <trkpt lat="48.36202" lon="-0.06861">
        <ele>161</ele>
        <time>2018-09-22T14:07:27Z</time>
      </trkpt>
      <trkpt lat="48.36203" lon="-0.06864">
        <ele>161</ele>
        <time>2018-09-22T14:07:29Z</time>
      </trkpt>
      <trkpt lat="48.36204" lon="-0.06871">
        <ele>160</ele>
        <time>2018-09-22T14:07:33Z</time>
      </trkpt>
      <trkpt lat="48.36204" lon="-0.06874">
        <ele>160</ele>
        <time>2018-09-22T14:07:35Z</time>
      </trkpt>
      <trkpt lat="48.36214" lon="-0.06897">
        <ele>160</ele>
        <time>2018-09-22T14:07:51Z</time>
      </trkpt>
      <trkpt lat="48.3622" lon="-0.06906">
        <ele>161</ele>
        <time>2018-09-22T14:07:57Z</time>
      </trkpt>
      <trkpt lat="48.36246" lon="-0.06936">
        <ele>163</ele>
        <time>2018-09-22T14:08:25Z</time>
      </trkpt>
      <trkpt lat="48.36248" lon="-0.06938">
        <ele>163</ele>
        <time>2018-09-22T14:08:27Z</time>
      </trkpt>
      <trkpt lat="48.36265" lon="-0.06962">
        <ele>162</ele>
        <time>2018-09-22T14:08:49Z</time>
      </trkpt>
      <trkpt lat="48.36267" lon="-0.06964">
        <ele>162</ele>
        <time>2018-09-22T14:08:51Z</time>
      </trkpt>
      <trkpt lat="48.3627" lon="-0.06968">
        <ele>161</ele>
        <time>2018-09-22T14:08:55Z</time>
      </trkpt>
      <trkpt lat="48.36282" lon="-0.0698">
        <ele>162</ele>
        <time>2018-09-22T14:09:11Z</time>
      </trkpt>
      <trkpt lat="48.36284" lon="-0.06982">
        <ele>161</ele>
        <time>2018-09-22T14:09:14Z</time>
      </trkpt>
      <trkpt lat="48.36284" lon="-0.06986">
        <ele>161</ele>
        <time>2018-09-22T14:09:24Z</time>
      </trkpt>
      <trkpt lat="48.36286" lon="-0.06987">
        <ele>160</ele>
        <time>2018-09-22T14:09:30Z</time>
      </trkpt>
      <trkpt lat="48.36287" lon="-0.06988">
        <ele>160</ele>
        <time>2018-09-22T14:10:09Z</time>
      </trkpt>
      <trkpt lat="48.36285" lon="-0.06993">
        <ele>160</ele>
        <time>2018-09-22T14:11:45Z</time>
      </trkpt>
      <trkpt lat="48.36277" lon="-0.06999">
        <ele>157</ele>
        <time>2018-09-22T14:12:01Z</time>
      </trkpt>
      <trkpt lat="48.36275" lon="-0.07001">
        <ele>156</ele>
        <time>2018-09-22T14:12:05Z</time>
      </trkpt>
      <trkpt lat="48.36254" lon="-0.0703">
        <ele>155</ele>
        <time>2018-09-22T14:12:35Z</time>
      </trkpt>
      <trkpt lat="48.36228" lon="-0.07054">
        <ele>155</ele>
        <time>2018-09-22T14:13:07Z</time>
      </trkpt>
      <trkpt lat="48.36203" lon="-0.07086">
        <ele>153</ele>
        <time>2018-09-22T14:13:37Z</time>
      </trkpt>
      <trkpt lat="48.36181" lon="-0.07118">
        <ele>147</ele>
        <time>2018-09-22T14:14:09Z</time>
      </trkpt>
      <trkpt lat="48.36169" lon="-0.07131">
        <ele>144</ele>
        <time>2018-09-22T14:14:22Z</time>
      </trkpt>
      <trkpt lat="48.36159" lon="-0.07137">
        <ele>144</ele>
        <time>2018-09-22T14:14:32Z</time>
      </trkpt>
      <trkpt lat="48.36147" lon="-0.07144">
        <ele>144</ele>
        <time>2018-09-22T14:14:43Z</time>
      </trkpt>
      <trkpt lat="48.36139" lon="-0.07151">
        <ele>144</ele>
        <time>2018-09-22T14:14:52Z</time>
      </trkpt>
      <trkpt lat="48.36134" lon="-0.07154">
        <ele>145</ele>
        <time>2018-09-22T14:14:57Z</time>
      </trkpt>
      <trkpt lat="48.36129" lon="-0.07159">
        <ele>147</ele>
        <time>2018-09-22T14:15:03Z</time>
      </trkpt>
      <trkpt lat="48.36123" lon="-0.07168">
        <ele>147</ele>
        <time>2018-09-22T14:15:13Z</time>
      </trkpt>
      <trkpt lat="48.36121" lon="-0.0717">
        <ele>147</ele>
        <time>2018-09-22T14:15:16Z</time>
      </trkpt>
      <trkpt lat="48.36113" lon="-0.07178">
        <ele>148</ele>
        <time>2018-09-22T14:15:25Z</time>
      </trkpt>
      <trkpt lat="48.36098" lon="-0.07191">
        <ele>147</ele>
        <time>2018-09-22T14:15:42Z</time>
      </trkpt>
      <trkpt lat="48.36092" lon="-0.07196">
        <ele>146</ele>
        <time>2018-09-22T14:16:13Z</time>
      </trkpt>
      <trkpt lat="48.36085" lon="-0.07197">
        <ele>145</ele>
        <time>2018-09-22T14:16:39Z</time>
      </trkpt>
      <trkpt lat="48.36082" lon="-0.07197">
        <ele>144</ele>
        <time>2018-09-22T14:16:48Z</time>
      </trkpt>
      <trkpt lat="48.3608" lon="-0.07196">
        <ele>142</ele>
        <time>2018-09-22T14:16:51Z</time>
      </trkpt>
      <trkpt lat="48.36079" lon="-0.07194">
        <ele>142</ele>
        <time>2018-09-22T14:16:54Z</time>
      </trkpt>
      <trkpt lat="48.36077" lon="-0.07192">
        <ele>141</ele>
        <time>2018-09-22T14:16:57Z</time>
      </trkpt>
      <trkpt lat="48.36076" lon="-0.07191">
        <ele>140</ele>
        <time>2018-09-22T14:17:12Z</time>
      </trkpt>
      <trkpt lat="48.36071" lon="-0.07192">
        <ele>139</ele>
        <time>2018-09-22T14:17:25Z</time>
      </trkpt>
      <trkpt lat="48.3607" lon="-0.07195">
        <ele>138</ele>
        <time>2018-09-22T14:17:29Z</time>
      </trkpt>
      <trkpt lat="48.36067" lon="-0.07196">
        <ele>138</ele>
        <time>2018-09-22T14:17:34Z</time>
      </trkpt>
      <trkpt lat="48.36065" lon="-0.07197">
        <ele>138</ele>
        <time>2018-09-22T14:17:38Z</time>
      </trkpt>
      <trkpt lat="48.36062" lon="-0.07198">
        <ele>138</ele>
        <time>2018-09-22T14:17:42Z</time>
      </trkpt>
      <trkpt lat="48.36057" lon="-0.07197">
        <ele>138</ele>
        <time>2018-09-22T14:17:48Z</time>
      </trkpt>
      <trkpt lat="48.36055" lon="-0.07198">
        <ele>138</ele>
        <time>2018-09-22T14:17:52Z</time>
      </trkpt>
      <trkpt lat="48.36049" lon="-0.07198">
        <ele>138</ele>
        <time>2018-09-22T14:18:01Z</time>
      </trkpt>
      <trkpt lat="48.36046" lon="-0.07199">
        <ele>138</ele>
        <time>2018-09-22T14:18:08Z</time>
      </trkpt>
      <trkpt lat="48.36033" lon="-0.07198">
        <ele>134</ele>
        <time>2018-09-22T14:18:24Z</time>
      </trkpt>
      <trkpt lat="48.36026" lon="-0.07196">
        <ele>133</ele>
        <time>2018-09-22T14:18:33Z</time>
      </trkpt>
      <trkpt lat="48.36024" lon="-0.07197">
        <ele>132</ele>
        <time>2018-09-22T14:18:36Z</time>
      </trkpt>
      <trkpt lat="48.36019" lon="-0.07198">
        <ele>131</ele>
        <time>2018-09-22T14:18:42Z</time>
      </trkpt>
      <trkpt lat="48.36016" lon="-0.07197">
        <ele>130</ele>
        <time>2018-09-22T14:18:46Z</time>
      </trkpt>
      <trkpt lat="48.36013" lon="-0.07197">
        <ele>130</ele>
        <time>2018-09-22T14:18:49Z</time>
      </trkpt>
      <trkpt lat="48.36008" lon="-0.07198">
        <ele>129</ele>
        <time>2018-09-22T14:18:56Z</time>
      </trkpt>
      <trkpt lat="48.35996" lon="-0.07211">
        <ele>125</ele>
        <time>2018-09-22T14:19:20Z</time>
      </trkpt>
      <trkpt lat="48.3599" lon="-0.07218">
        <ele>124</ele>
        <time>2018-09-22T14:19:29Z</time>
      </trkpt>
      <trkpt lat="48.35986" lon="-0.07223">
        <ele>122</ele>
        <time>2018-09-22T14:19:34Z</time>
      </trkpt>
      <trkpt lat="48.35983" lon="-0.07225">
        <ele>121</ele>
        <time>2018-09-22T14:19:38Z</time>
      </trkpt>
      <trkpt lat="48.35978" lon="-0.07228">
        <ele>121</ele>
        <time>2018-09-22T14:19:44Z</time>
      </trkpt>
      <trkpt lat="48.35976" lon="-0.0723">
        <ele>121</ele>
        <time>2018-09-22T14:19:48Z</time>
      </trkpt>
      <trkpt lat="48.35974" lon="-0.07232">
        <ele>120</ele>
        <time>2018-09-22T14:19:52Z</time>
      </trkpt>
      <trkpt lat="48.3597" lon="-0.07235">
        <ele>119</ele>
        <time>2018-09-22T14:19:58Z</time>
      </trkpt>
      <trkpt lat="48.35967" lon="-0.07241">
        <ele>117</ele>
        <time>2018-09-22T14:20:07Z</time>
      </trkpt>
      <trkpt lat="48.35966" lon="-0.07245">
        <ele>116</ele>
        <time>2018-09-22T14:20:11Z</time>
      </trkpt>
      <trkpt lat="48.35961" lon="-0.07259">
        <ele>110</ele>
        <time>2018-09-22T14:20:28Z</time>
      </trkpt>
      <trkpt lat="48.35958" lon="-0.07272">
        <ele>108</ele>
        <time>2018-09-22T14:20:40Z</time>
      </trkpt>
      <trkpt lat="48.35951" lon="-0.07292">
        <ele>107</ele>
        <time>2018-09-22T14:20:57Z</time>
      </trkpt>
      <trkpt lat="48.35949" lon="-0.07295">
        <ele>106</ele>
        <time>2018-09-22T14:21:00Z</time>
      </trkpt>
      <trkpt lat="48.35941" lon="-0.07315">
        <ele>104</ele>
        <time>2018-09-22T14:21:18Z</time>
      </trkpt>
      <trkpt lat="48.3594" lon="-0.0732">
        <ele>103</ele>
        <time>2018-09-22T14:21:22Z</time>
      </trkpt>
      <trkpt lat="48.3594" lon="-0.07333">
        <ele>103</ele>
        <time>2018-09-22T14:21:34Z</time>
      </trkpt>
      <trkpt lat="48.35942" lon="-0.07336">
        <ele>103</ele>
        <time>2018-09-22T14:21:37Z</time>
      </trkpt>
      <trkpt lat="48.35941" lon="-0.0734">
        <ele>105</ele>
        <time>2018-09-22T14:21:42Z</time>
      </trkpt>
      <trkpt lat="48.35939" lon="-0.07342">
        <ele>105</ele>
        <time>2018-09-22T14:21:46Z</time>
      </trkpt>
      <trkpt lat="48.35938" lon="-0.07345">
        <ele>105</ele>
        <time>2018-09-22T14:21:50Z</time>
      </trkpt>
      <trkpt lat="48.35939" lon="-0.07349">
        <ele>106</ele>
        <time>2018-09-22T14:21:56Z</time>
      </trkpt>
      <trkpt lat="48.35942" lon="-0.07356">
        <ele>105</ele>
        <time>2018-09-22T14:22:04Z</time>
      </trkpt>
      <trkpt lat="48.35944" lon="-0.07361">
        <ele>106</ele>
        <time>2018-09-22T14:22:08Z</time>
      </trkpt>
      <trkpt lat="48.35945" lon="-0.07365">
        <ele>106</ele>
        <time>2018-09-22T14:22:11Z</time>
      </trkpt>
      <trkpt lat="48.35946" lon="-0.07372">
        <ele>107</ele>
        <time>2018-09-22T14:22:19Z</time>
      </trkpt>
      <trkpt lat="48.35945" lon="-0.0738">
        <ele>110</ele>
        <time>2018-09-22T14:22:53Z</time>
      </trkpt>
      <trkpt lat="48.35943" lon="-0.07378">
        <ele>111</ele>
        <time>2018-09-22T14:23:26Z</time>
      </trkpt>
      <trkpt lat="48.35941" lon="-0.07375">
        <ele>107</ele>
        <time>2018-09-22T14:23:31Z</time>
      </trkpt>
      <trkpt lat="48.35938" lon="-0.07373">
        <ele>105</ele>
        <time>2018-09-22T14:23:35Z</time>
      </trkpt>
      <trkpt lat="48.35935" lon="-0.07373">
        <ele>104</ele>
        <time>2018-09-22T14:23:38Z</time>
      </trkpt>
      <trkpt lat="48.35928" lon="-0.07384">
        <ele>101</ele>
        <time>2018-09-22T14:23:56Z</time>
      </trkpt>
      <trkpt lat="48.35927" lon="-0.07386">
        <ele>101</ele>
        <time>2018-09-22T14:23:59Z</time>
      </trkpt>
      <trkpt lat="48.35928" lon="-0.07389">
        <ele>101</ele>
        <time>2018-09-22T14:24:02Z</time>
      </trkpt>
      <trkpt lat="48.35927" lon="-0.07392">
        <ele>100</ele>
        <time>2018-09-22T14:24:07Z</time>
      </trkpt>
      <trkpt lat="48.35926" lon="-0.07403">
        <ele>98</ele>
        <time>2018-09-22T14:25:42Z</time>
      </trkpt>
      <trkpt lat="48.35926" lon="-0.07407">
        <ele>97</ele>
        <time>2018-09-22T14:25:47Z</time>
      </trkpt>
      <trkpt lat="48.35922" lon="-0.07426">
        <ele>95</ele>
        <time>2018-09-22T14:26:04Z</time>
      </trkpt>
      <trkpt lat="48.3592" lon="-0.07433">
        <ele>93</ele>
        <time>2018-09-22T14:26:10Z</time>
      </trkpt>
      <trkpt lat="48.35919" lon="-0.07438">
        <ele>93</ele>
        <time>2018-09-22T14:26:13Z</time>
      </trkpt>
      <trkpt lat="48.35917" lon="-0.07445">
        <ele>93</ele>
        <time>2018-09-22T14:26:19Z</time>
      </trkpt>
      <trkpt lat="48.35914" lon="-0.07456">
        <ele>91</ele>
        <time>2018-09-22T14:26:27Z</time>
      </trkpt>
      <trkpt lat="48.35913" lon="-0.0746">
        <ele>90</ele>
        <time>2018-09-22T14:26:31Z</time>
      </trkpt>
      <trkpt lat="48.35912" lon="-0.07462">
        <ele>90</ele>
        <time>2018-09-22T14:26:34Z</time>
      </trkpt>
      <trkpt lat="48.35909" lon="-0.07472">
        <ele>91</ele>
        <time>2018-09-22T14:26:50Z</time>
      </trkpt>
      <trkpt lat="48.35907" lon="-0.07491">
        <ele>93</ele>
        <time>2018-09-22T14:27:06Z</time>
      </trkpt>
      <trkpt lat="48.35908" lon="-0.07507">
        <ele>96</ele>
        <time>2018-09-22T14:27:21Z</time>
      </trkpt>
      <trkpt lat="48.3591" lon="-0.07515">
        <ele>98</ele>
        <time>2018-09-22T14:27:29Z</time>
      </trkpt>
      <trkpt lat="48.35909" lon="-0.07525">
        <ele>98</ele>
        <time>2018-09-22T14:27:34Z</time>
      </trkpt>
      <trkpt lat="48.35911" lon="-0.07559">
        <ele>98</ele>
        <time>2018-09-22T14:27:53Z</time>
      </trkpt>
      <trkpt lat="48.35911" lon="-0.0761">
        <ele>92</ele>
        <time>2018-09-22T14:28:25Z</time>
      </trkpt>
      <trkpt lat="48.35911" lon="-0.07613">
        <ele>93</ele>
        <time>2018-09-22T14:28:28Z</time>
      </trkpt>
      <trkpt lat="48.3591" lon="-0.07625">
        <ele>92</ele>
        <time>2018-09-22T14:28:37Z</time>
      </trkpt>
      <trkpt lat="48.35908" lon="-0.07654">
        <ele>89</ele>
        <time>2018-09-22T14:28:52Z</time>
      </trkpt>
      <trkpt lat="48.35907" lon="-0.07663">
        <ele>88</ele>
        <time>2018-09-22T14:28:58Z</time>
      </trkpt>
      <trkpt lat="48.35905" lon="-0.07678">
        <ele>87</ele>
        <time>2018-09-22T14:29:06Z</time>
      </trkpt>
      <trkpt lat="48.35905" lon="-0.07692">
        <ele>87</ele>
        <time>2018-09-22T14:29:14Z</time>
      </trkpt>
      <trkpt lat="48.35902" lon="-0.0773">
        <ele>83</ele>
        <time>2018-09-22T14:29:33Z</time>
      </trkpt>
      <trkpt lat="48.35899" lon="-0.07743">
        <ele>82</ele>
        <time>2018-09-22T14:29:39Z</time>
      </trkpt>
      <trkpt lat="48.35898" lon="-0.07756">
        <ele>82</ele>
        <time>2018-09-22T14:29:45Z</time>
      </trkpt>
      <trkpt lat="48.35897" lon="-0.07763">
        <ele>80</ele>
        <time>2018-09-22T14:29:49Z</time>
      </trkpt>
      <trkpt lat="48.35894" lon="-0.07783">
        <ele>77</ele>
        <time>2018-09-22T14:30:01Z</time>
      </trkpt>
      <trkpt lat="48.35894" lon="-0.07786">
        <ele>77</ele>
        <time>2018-09-22T14:30:03Z</time>
      </trkpt>
      <trkpt lat="48.3589" lon="-0.0781">
        <ele>77</ele>
        <time>2018-09-22T14:30:16Z</time>
      </trkpt>
      <trkpt lat="48.3589" lon="-0.07815">
        <ele>77</ele>
        <time>2018-09-22T14:30:18Z</time>
      </trkpt>
      <trkpt lat="48.35888" lon="-0.07826">
        <ele>76</ele>
        <time>2018-09-22T14:30:24Z</time>
      </trkpt>
      <trkpt lat="48.35887" lon="-0.07831">
        <ele>75</ele>
        <time>2018-09-22T14:30:27Z</time>
      </trkpt>
      <trkpt lat="48.35885" lon="-0.0785">
        <ele>76</ele>
        <time>2018-09-22T14:30:38Z</time>
      </trkpt>
      <trkpt lat="48.35882" lon="-0.07856">
        <ele>78</ele>
        <time>2018-09-22T14:30:42Z</time>
      </trkpt>
      <trkpt lat="48.35875" lon="-0.07875">
        <ele>82</ele>
        <time>2018-09-22T14:30:52Z</time>
      </trkpt>
      <trkpt lat="48.35869" lon="-0.07885">
        <ele>83</ele>
        <time>2018-09-22T14:31:01Z</time>
      </trkpt>
      <trkpt lat="48.35868" lon="-0.07886">
        <ele>82</ele>
        <time>2018-09-22T14:31:12Z</time>
      </trkpt>
      <trkpt lat="48.35869" lon="-0.07896">
        <ele>83</ele>
        <time>2018-09-22T14:32:32Z</time>
      </trkpt>
      <trkpt lat="48.35868" lon="-0.07895">
        <ele>84</ele>
        <time>2018-09-22T14:32:40Z</time>
      </trkpt>
      <trkpt lat="48.35867" lon="-0.07895">
        <ele>85</ele>
        <time>2018-09-22T14:32:55Z</time>
      </trkpt>
      <trkpt lat="48.35863" lon="-0.07894">
        <ele>85</ele>
        <time>2018-09-22T14:32:59Z</time>
      </trkpt>
      <trkpt lat="48.35859" lon="-0.07895">
        <ele>85</ele>
        <time>2018-09-22T14:33:03Z</time>
      </trkpt>
      <trkpt lat="48.35846" lon="-0.07905">
        <ele>86</ele>
        <time>2018-09-22T14:33:17Z</time>
      </trkpt>
      <trkpt lat="48.35844" lon="-0.07906">
        <ele>87</ele>
        <time>2018-09-22T14:33:19Z</time>
      </trkpt>
      <trkpt lat="48.35842" lon="-0.07907">
        <ele>87</ele>
        <time>2018-09-22T14:33:21Z</time>
      </trkpt>
      <trkpt lat="48.3584" lon="-0.07907">
        <ele>87</ele>
        <time>2018-09-22T14:33:23Z</time>
      </trkpt>
      <trkpt lat="48.35831" lon="-0.07914">
        <ele>87</ele>
        <time>2018-09-22T14:33:32Z</time>
      </trkpt>
      <trkpt lat="48.35829" lon="-0.07915">
        <ele>87</ele>
        <time>2018-09-22T14:33:34Z</time>
      </trkpt>
      <trkpt lat="48.35827" lon="-0.07916">
        <ele>87</ele>
        <time>2018-09-22T14:33:36Z</time>
      </trkpt>
      <trkpt lat="48.35823" lon="-0.07915">
        <ele>88</ele>
        <time>2018-09-22T14:33:40Z</time>
      </trkpt>
      <trkpt lat="48.35821" lon="-0.07915">
        <ele>89</ele>
        <time>2018-09-22T14:33:42Z</time>
      </trkpt>
      <trkpt lat="48.35818" lon="-0.07913">
        <ele>90</ele>
        <time>2018-09-22T14:33:45Z</time>
      </trkpt>
      <trkpt lat="48.35817" lon="-0.0791">
        <ele>90</ele>
        <time>2018-09-22T14:33:48Z</time>
      </trkpt>
      <trkpt lat="48.35817" lon="-0.07907">
        <ele>92</ele>
        <time>2018-09-22T14:33:51Z</time>
      </trkpt>
      <trkpt lat="48.35815" lon="-0.07894">
        <ele>93</ele>
        <time>2018-09-22T14:34:03Z</time>
      </trkpt>
      <trkpt lat="48.35816" lon="-0.07878">
        <ele>91</ele>
        <time>2018-09-22T14:34:15Z</time>
      </trkpt>
      <trkpt lat="48.35816" lon="-0.07871">
        <ele>90</ele>
        <time>2018-09-22T14:34:22Z</time>
      </trkpt>
      <trkpt lat="48.35816" lon="-0.07866">
        <ele>90</ele>
        <time>2018-09-22T14:34:25Z</time>
      </trkpt>
      <trkpt lat="48.35816" lon="-0.07862">
        <ele>90</ele>
        <time>2018-09-22T14:34:29Z</time>
      </trkpt>
      <trkpt lat="48.35818" lon="-0.07859">
        <ele>90</ele>
        <time>2018-09-22T14:34:33Z</time>
      </trkpt>
      <trkpt lat="48.35817" lon="-0.07851">
        <ele>94</ele>
        <time>2018-09-22T14:34:42Z</time>
      </trkpt>
      <trkpt lat="48.35818" lon="-0.07843">
        <ele>98</ele>
        <time>2018-09-22T14:34:49Z</time>
      </trkpt>
      <trkpt lat="48.35816" lon="-0.07841">
        <ele>100</ele>
        <time>2018-09-22T14:35:00Z</time>
      </trkpt>
      <trkpt lat="48.35814" lon="-0.07842">
        <ele>102</ele>
        <time>2018-09-22T14:35:03Z</time>
      </trkpt>
      <trkpt lat="48.35811" lon="-0.07842">
        <ele>103</ele>
        <time>2018-09-22T14:35:07Z</time>
      </trkpt>
      <trkpt lat="48.35804" lon="-0.07844">
        <ele>107</ele>
        <time>2018-09-22T14:35:22Z</time>
      </trkpt>
      <trkpt lat="48.35801" lon="-0.07844">
        <ele>109</ele>
        <time>2018-09-22T14:35:25Z</time>
      </trkpt>
      <trkpt lat="48.35799" lon="-0.07844">
        <ele>109</ele>
        <time>2018-09-22T14:35:27Z</time>
      </trkpt>
      <trkpt lat="48.35795" lon="-0.07847">
        <ele>108</ele>
        <time>2018-09-22T14:35:34Z</time>
      </trkpt>
      <trkpt lat="48.35789" lon="-0.07857">
        <ele>108</ele>
        <time>2018-09-22T14:35:44Z</time>
      </trkpt>
      <trkpt lat="48.35787" lon="-0.07858">
        <ele>107</ele>
        <time>2018-09-22T14:35:46Z</time>
      </trkpt>
      <trkpt lat="48.35783" lon="-0.07862">
        <ele>105</ele>
        <time>2018-09-22T14:35:50Z</time>
      </trkpt>
      <trkpt lat="48.35771" lon="-0.07869">
        <ele>103</ele>
        <time>2018-09-22T14:36:02Z</time>
      </trkpt>
      <trkpt lat="48.35763" lon="-0.07874">
        <ele>101</ele>
        <time>2018-09-22T14:36:10Z</time>
      </trkpt>
      <trkpt lat="48.35761" lon="-0.07875">
        <ele>102</ele>
        <time>2018-09-22T14:36:12Z</time>
      </trkpt>
      <trkpt lat="48.35759" lon="-0.07875">
        <ele>102</ele>
        <time>2018-09-22T14:36:14Z</time>
      </trkpt>
      <trkpt lat="48.35754" lon="-0.07876">
        <ele>102</ele>
        <time>2018-09-22T14:36:19Z</time>
      </trkpt>
      <trkpt lat="48.35736" lon="-0.07887">
        <ele>99</ele>
        <time>2018-09-22T14:36:39Z</time>
      </trkpt>
      <trkpt lat="48.35735" lon="-0.07888">
        <ele>98</ele>
        <time>2018-09-22T14:36:42Z</time>
      </trkpt>
      <trkpt lat="48.35732" lon="-0.0789">
        <ele>98</ele>
        <time>2018-09-22T14:36:45Z</time>
      </trkpt>
      <trkpt lat="48.35727" lon="-0.07891">
        <ele>99</ele>
        <time>2018-09-22T14:36:51Z</time>
      </trkpt>
      <trkpt lat="48.35723" lon="-0.07894">
        <ele>100</ele>
        <time>2018-09-22T14:36:57Z</time>
      </trkpt>
      <trkpt lat="48.35721" lon="-0.07895">
        <ele>100</ele>
        <time>2018-09-22T14:36:59Z</time>
      </trkpt>
      <trkpt lat="48.35719" lon="-0.07896">
        <ele>101</ele>
        <time>2018-09-22T14:37:02Z</time>
      </trkpt>
      <trkpt lat="48.35717" lon="-0.07896">
        <ele>101</ele>
        <time>2018-09-22T14:37:06Z</time>
      </trkpt>
      <trkpt lat="48.35711" lon="-0.07903">
        <ele>102</ele>
        <time>2018-09-22T14:37:15Z</time>
      </trkpt>
      <trkpt lat="48.35699" lon="-0.07908">
        <ele>103</ele>
        <time>2018-09-22T14:37:30Z</time>
      </trkpt>
      <trkpt lat="48.35697" lon="-0.0791">
        <ele>103</ele>
        <time>2018-09-22T14:37:33Z</time>
      </trkpt>
      <trkpt lat="48.35691" lon="-0.07916">
        <ele>104</ele>
        <time>2018-09-22T14:37:45Z</time>
      </trkpt>
      <trkpt lat="48.35679" lon="-0.07919">
        <ele>103</ele>
        <time>2018-09-22T14:38:06Z</time>
      </trkpt>
      <trkpt lat="48.35673" lon="-0.07917">
        <ele>101</ele>
        <time>2018-09-22T14:38:15Z</time>
      </trkpt>
      <trkpt lat="48.35668" lon="-0.07913">
        <ele>97</ele>
        <time>2018-09-22T14:38:21Z</time>
      </trkpt>
      <trkpt lat="48.35659" lon="-0.07913">
        <ele>93</ele>
        <time>2018-09-22T14:38:31Z</time>
      </trkpt>
      <trkpt lat="48.35656" lon="-0.07914">
        <ele>93</ele>
        <time>2018-09-22T14:38:34Z</time>
      </trkpt>
      <trkpt lat="48.35655" lon="-0.07916">
        <ele>93</ele>
        <time>2018-09-22T14:38:37Z</time>
      </trkpt>
      <trkpt lat="48.35654" lon="-0.07926">
        <ele>89</ele>
        <time>2018-09-22T14:38:52Z</time>
      </trkpt>
      <trkpt lat="48.35653" lon="-0.07931">
        <ele>89</ele>
        <time>2018-09-22T14:38:56Z</time>
      </trkpt>
      <trkpt lat="48.35652" lon="-0.07935">
        <ele>89</ele>
        <time>2018-09-22T14:39:01Z</time>
      </trkpt>
      <trkpt lat="48.3565" lon="-0.0794">
        <ele>88</ele>
        <time>2018-09-22T14:39:08Z</time>
      </trkpt>
      <trkpt lat="48.35639" lon="-0.07943">
        <ele>86</ele>
        <time>2018-09-22T14:39:20Z</time>
      </trkpt>
      <trkpt lat="48.35637" lon="-0.07944">
        <ele>85</ele>
        <time>2018-09-22T14:39:22Z</time>
      </trkpt>
      <trkpt lat="48.35635" lon="-0.07944">
        <ele>85</ele>
        <time>2018-09-22T14:39:24Z</time>
      </trkpt>
      <trkpt lat="48.35633" lon="-0.07943">
        <ele>85</ele>
        <time>2018-09-22T14:39:26Z</time>
      </trkpt>
      <trkpt lat="48.35631" lon="-0.07943">
        <ele>85</ele>
        <time>2018-09-22T14:39:28Z</time>
      </trkpt>
      <trkpt lat="48.35629" lon="-0.07942">
        <ele>84</ele>
        <time>2018-09-22T14:39:30Z</time>
      </trkpt>
      <trkpt lat="48.35627" lon="-0.07941">
        <ele>84</ele>
        <time>2018-09-22T14:39:32Z</time>
      </trkpt>
      <trkpt lat="48.35617" lon="-0.07934">
        <ele>82</ele>
        <time>2018-09-22T14:39:44Z</time>
      </trkpt>
      <trkpt lat="48.35615" lon="-0.07933">
        <ele>81</ele>
        <time>2018-09-22T14:39:46Z</time>
      </trkpt>
      <trkpt lat="48.35602" lon="-0.07921">
        <ele>76</ele>
        <time>2018-09-22T14:40:01Z</time>
      </trkpt>
      <trkpt lat="48.35599" lon="-0.07919">
        <ele>75</ele>
        <time>2018-09-22T14:40:05Z</time>
      </trkpt>
      <trkpt lat="48.35594" lon="-0.07914">
        <ele>73</ele>
        <time>2018-09-22T14:40:11Z</time>
      </trkpt>
      <trkpt lat="48.3559" lon="-0.07912">
        <ele>73</ele>
        <time>2018-09-22T14:40:15Z</time>
      </trkpt>
      <trkpt lat="48.35586" lon="-0.07908">
        <ele>72</ele>
        <time>2018-09-22T14:40:20Z</time>
      </trkpt>
      <trkpt lat="48.35585" lon="-0.07907">
        <ele>72</ele>
        <time>2018-09-22T14:40:22Z</time>
      </trkpt>
      <trkpt lat="48.35579" lon="-0.07901">
        <ele>71</ele>
        <time>2018-09-22T14:40:29Z</time>
      </trkpt>
      <trkpt lat="48.35577" lon="-0.079">
        <ele>71</ele>
        <time>2018-09-22T14:40:31Z</time>
      </trkpt>
      <trkpt lat="48.35576" lon="-0.07899">
        <ele>70</ele>
        <time>2018-09-22T14:40:33Z</time>
      </trkpt>
      <trkpt lat="48.35562" lon="-0.0789">
        <ele>69</ele>
        <time>2018-09-22T14:40:48Z</time>
      </trkpt>
      <trkpt lat="48.35559" lon="-0.07889">
        <ele>70</ele>
        <time>2018-09-22T14:40:55Z</time>
      </trkpt>
      <trkpt lat="48.3554" lon="-0.07879">
        <ele>68</ele>
        <time>2018-09-22T14:41:14Z</time>
      </trkpt>
      <trkpt lat="48.35538" lon="-0.07878">
        <ele>68</ele>
        <time>2018-09-22T14:41:16Z</time>
      </trkpt>
      <trkpt lat="48.35525" lon="-0.07868">
        <ele>68</ele>
        <time>2018-09-22T14:41:30Z</time>
      </trkpt>
      <trkpt lat="48.35523" lon="-0.07867">
        <ele>68</ele>
        <time>2018-09-22T14:41:32Z</time>
      </trkpt>
      <trkpt lat="48.35522" lon="-0.07865">
        <ele>68</ele>
        <time>2018-09-22T14:41:34Z</time>
      </trkpt>
      <trkpt lat="48.3552" lon="-0.07863">
        <ele>68</ele>
        <time>2018-09-22T14:41:36Z</time>
      </trkpt>
      <trkpt lat="48.35518" lon="-0.07862">
        <ele>68</ele>
        <time>2018-09-22T14:41:38Z</time>
      </trkpt>
      <trkpt lat="48.35516" lon="-0.0786">
        <ele>68</ele>
        <time>2018-09-22T14:41:40Z</time>
      </trkpt>
      <trkpt lat="48.35511" lon="-0.07858">
        <ele>67</ele>
        <time>2018-09-22T14:41:44Z</time>
      </trkpt>
      <trkpt lat="48.35504" lon="-0.07852">
        <ele>65</ele>
        <time>2018-09-22T14:41:53Z</time>
      </trkpt>
      <trkpt lat="48.35501" lon="-0.07853">
        <ele>63</ele>
        <time>2018-09-22T14:42:03Z</time>
      </trkpt>
      <trkpt lat="48.35495" lon="-0.0785">
        <ele>61</ele>
        <time>2018-09-22T14:42:11Z</time>
      </trkpt>
      <trkpt lat="48.35493" lon="-0.07848">
        <ele>61</ele>
        <time>2018-09-22T14:42:14Z</time>
      </trkpt>
      <trkpt lat="48.35492" lon="-0.07846">
        <ele>61</ele>
        <time>2018-09-22T14:42:16Z</time>
      </trkpt>
      <trkpt lat="48.3549" lon="-0.07841">
        <ele>61</ele>
        <time>2018-09-22T14:42:20Z</time>
      </trkpt>
      <trkpt lat="48.35488" lon="-0.07834">
        <ele>60</ele>
        <time>2018-09-22T14:42:24Z</time>
      </trkpt>
      <trkpt lat="48.35483" lon="-0.07819">
        <ele>60</ele>
        <time>2018-09-22T14:42:34Z</time>
      </trkpt>
      <trkpt lat="48.35474" lon="-0.0779">
        <ele>60</ele>
        <time>2018-09-22T14:42:52Z</time>
      </trkpt>
      <trkpt lat="48.35472" lon="-0.07788">
        <ele>60</ele>
        <time>2018-09-22T14:42:54Z</time>
      </trkpt>
      <trkpt lat="48.3547" lon="-0.07783">
        <ele>60</ele>
        <time>2018-09-22T14:42:58Z</time>
      </trkpt>
      <trkpt lat="48.35461" lon="-0.0777">
        <ele>58</ele>
        <time>2018-09-22T14:43:10Z</time>
      </trkpt>
      <trkpt lat="48.35445" lon="-0.07758">
        <ele>52</ele>
        <time>2018-09-22T14:43:26Z</time>
      </trkpt>
      <trkpt lat="48.35443" lon="-0.07757">
        <ele>52</ele>
        <time>2018-09-22T14:43:28Z</time>
      </trkpt>
      <trkpt lat="48.35441" lon="-0.07757">
        <ele>52</ele>
        <time>2018-09-22T14:43:30Z</time>
      </trkpt>
      <trkpt lat="48.35439" lon="-0.07757">
        <ele>52</ele>
        <time>2018-09-22T14:43:32Z</time>
      </trkpt>
      <trkpt lat="48.35436" lon="-0.07756">
        <ele>52</ele>
        <time>2018-09-22T14:43:34Z</time>
      </trkpt>
      <trkpt lat="48.35426" lon="-0.07753">
        <ele>52</ele>
        <time>2018-09-22T14:43:42Z</time>
      </trkpt>
      <trkpt lat="48.35421" lon="-0.07752">
        <ele>53</ele>
        <time>2018-09-22T14:43:46Z</time>
      </trkpt>
      <trkpt lat="48.35418" lon="-0.07751">
        <ele>53</ele>
        <time>2018-09-22T14:43:48Z</time>
      </trkpt>
      <trkpt lat="48.35399" lon="-0.07746">
        <ele>51</ele>
        <time>2018-09-22T14:44:05Z</time>
      </trkpt>
      <trkpt lat="48.35397" lon="-0.07745">
        <ele>51</ele>
        <time>2018-09-22T14:44:07Z</time>
      </trkpt>
      <trkpt lat="48.35395" lon="-0.07739">
        <ele>51</ele>
        <time>2018-09-22T14:44:11Z</time>
      </trkpt>
      <trkpt lat="48.3539" lon="-0.07735">
        <ele>51</ele>
        <time>2018-09-22T14:44:15Z</time>
      </trkpt>
      <trkpt lat="48.35387" lon="-0.07734">
        <ele>52</ele>
        <time>2018-09-22T14:44:17Z</time>
      </trkpt>
      <trkpt lat="48.35383" lon="-0.07733">
        <ele>53</ele>
        <time>2018-09-22T14:44:21Z</time>
      </trkpt>
      <trkpt lat="48.35376" lon="-0.07731">
        <ele>54</ele>
        <time>2018-09-22T14:44:27Z</time>
      </trkpt>
      <trkpt lat="48.35371" lon="-0.07731">
        <ele>55</ele>
        <time>2018-09-22T14:44:31Z</time>
      </trkpt>
      <trkpt lat="48.3536" lon="-0.07727">
        <ele>58</ele>
        <time>2018-09-22T14:44:41Z</time>
      </trkpt>
      <trkpt lat="48.3535" lon="-0.07725">
        <ele>59</ele>
        <time>2018-09-22T14:44:49Z</time>
      </trkpt>
      <trkpt lat="48.35347" lon="-0.07724">
        <ele>60</ele>
        <time>2018-09-22T14:44:51Z</time>
      </trkpt>
      <trkpt lat="48.35337" lon="-0.07722">
        <ele>63</ele>
        <time>2018-09-22T14:45:01Z</time>
      </trkpt>
      <trkpt lat="48.35334" lon="-0.07722">
        <ele>63</ele>
        <time>2018-09-22T14:45:03Z</time>
      </trkpt>
      <trkpt lat="48.35332" lon="-0.07722">
        <ele>64</ele>
        <time>2018-09-22T14:45:05Z</time>
      </trkpt>
      <trkpt lat="48.35328" lon="-0.0772">
        <ele>64</ele>
        <time>2018-09-22T14:45:09Z</time>
      </trkpt>
      <trkpt lat="48.35326" lon="-0.0772">
        <ele>64</ele>
        <time>2018-09-22T14:45:11Z</time>
      </trkpt>
      <trkpt lat="48.35324" lon="-0.0772">
        <ele>64</ele>
        <time>2018-09-22T14:45:13Z</time>
      </trkpt>
      <trkpt lat="48.35316" lon="-0.07719">
        <ele>67</ele>
        <time>2018-09-22T14:45:19Z</time>
      </trkpt>
      <trkpt lat="48.35312" lon="-0.07719">
        <ele>69</ele>
        <time>2018-09-22T14:45:23Z</time>
      </trkpt>
      <trkpt lat="48.3531" lon="-0.07718">
        <ele>69</ele>
        <time>2018-09-22T14:45:25Z</time>
      </trkpt>
      <trkpt lat="48.35308" lon="-0.07717">
        <ele>69</ele>
        <time>2018-09-22T14:45:27Z</time>
      </trkpt>
      <trkpt lat="48.35306" lon="-0.07716">
        <ele>69</ele>
        <time>2018-09-22T14:45:29Z</time>
      </trkpt>
      <trkpt lat="48.35304" lon="-0.07715">
        <ele>69</ele>
        <time>2018-09-22T14:45:31Z</time>
      </trkpt>
      <trkpt lat="48.35302" lon="-0.07714">
        <ele>69</ele>
        <time>2018-09-22T14:45:33Z</time>
      </trkpt>
      <trkpt lat="48.353" lon="-0.07714">
        <ele>69</ele>
        <time>2018-09-22T14:45:35Z</time>
      </trkpt>
      <trkpt lat="48.35292" lon="-0.07712">
        <ele>70</ele>
        <time>2018-09-22T14:45:43Z</time>
      </trkpt>
      <trkpt lat="48.35283" lon="-0.0771">
        <ele>69</ele>
        <time>2018-09-22T14:45:51Z</time>
      </trkpt>
      <trkpt lat="48.35281" lon="-0.07709">
        <ele>69</ele>
        <time>2018-09-22T14:45:53Z</time>
      </trkpt>
      <trkpt lat="48.35279" lon="-0.07709">
        <ele>69</ele>
        <time>2018-09-22T14:45:55Z</time>
      </trkpt>
      <trkpt lat="48.3527" lon="-0.07707">
        <ele>66</ele>
        <time>2018-09-22T14:46:03Z</time>
      </trkpt>
      <trkpt lat="48.35268" lon="-0.07708">
        <ele>66</ele>
        <time>2018-09-22T14:46:05Z</time>
      </trkpt>
      <trkpt lat="48.35262" lon="-0.07707">
        <ele>67</ele>
        <time>2018-09-22T14:46:11Z</time>
      </trkpt>
      <trkpt lat="48.35252" lon="-0.07704">
        <ele>68</ele>
        <time>2018-09-22T14:46:19Z</time>
      </trkpt>
      <trkpt lat="48.3525" lon="-0.07703">
        <ele>67</ele>
        <time>2018-09-22T14:46:21Z</time>
      </trkpt>
      <trkpt lat="48.35245" lon="-0.07703">
        <ele>67</ele>
        <time>2018-09-22T14:46:25Z</time>
      </trkpt>
      <trkpt lat="48.35238" lon="-0.07701">
        <ele>67</ele>
        <time>2018-09-22T14:46:31Z</time>
      </trkpt>
      <trkpt lat="48.35229" lon="-0.07701">
        <ele>69</ele>
        <time>2018-09-22T14:46:39Z</time>
      </trkpt>
      <trkpt lat="48.35226" lon="-0.077">
        <ele>69</ele>
        <time>2018-09-22T14:46:41Z</time>
      </trkpt>
      <trkpt lat="48.35217" lon="-0.077">
        <ele>69</ele>
        <time>2018-09-22T14:46:49Z</time>
      </trkpt>
      <trkpt lat="48.35215" lon="-0.07699">
        <ele>69</ele>
        <time>2018-09-22T14:46:52Z</time>
      </trkpt>
      <trkpt lat="48.35212" lon="-0.07701">
        <ele>68</ele>
        <time>2018-09-22T14:46:55Z</time>
      </trkpt>
      <trkpt lat="48.35211" lon="-0.07704">
        <ele>68</ele>
        <time>2018-09-22T14:46:57Z</time>
      </trkpt>
      <trkpt lat="48.35209" lon="-0.07711">
        <ele>68</ele>
        <time>2018-09-22T14:47:01Z</time>
      </trkpt>
      <trkpt lat="48.35209" lon="-0.07715">
        <ele>66</ele>
        <time>2018-09-22T14:47:04Z</time>
      </trkpt>
      <trkpt lat="48.35211" lon="-0.07721">
        <ele>63</ele>
        <time>2018-09-22T14:47:16Z</time>
      </trkpt>
      <trkpt lat="48.35211" lon="-0.07724">
        <ele>62</ele>
        <time>2018-09-22T14:47:19Z</time>
      </trkpt>
      <trkpt lat="48.35209" lon="-0.07727">
        <ele>61</ele>
        <time>2018-09-22T14:47:22Z</time>
      </trkpt>
      <trkpt lat="48.35204" lon="-0.07733">
        <ele>61</ele>
        <time>2018-09-22T14:47:29Z</time>
      </trkpt>
      <trkpt lat="48.35202" lon="-0.07735">
        <ele>61</ele>
        <time>2018-09-22T14:47:31Z</time>
      </trkpt>
      <trkpt lat="48.35195" lon="-0.07743">
        <ele>60</ele>
        <time>2018-09-22T14:47:39Z</time>
      </trkpt>
      <trkpt lat="48.35193" lon="-0.07745">
        <ele>59</ele>
        <time>2018-09-22T14:47:41Z</time>
      </trkpt>
      <trkpt lat="48.35191" lon="-0.07747">
        <ele>58</ele>
        <time>2018-09-22T14:47:44Z</time>
      </trkpt>
      <trkpt lat="48.3519" lon="-0.07748">
        <ele>58</ele>
        <time>2018-09-22T14:47:46Z</time>
      </trkpt>
      <trkpt lat="48.35188" lon="-0.07748">
        <ele>57</ele>
        <time>2018-09-22T14:47:48Z</time>
      </trkpt>
      <trkpt lat="48.35185" lon="-0.07749">
        <ele>57</ele>
        <time>2018-09-22T14:47:50Z</time>
      </trkpt>
      <trkpt lat="48.35184" lon="-0.07749">
        <ele>58</ele>
        <time>2018-09-22T14:47:52Z</time>
      </trkpt>
      <trkpt lat="48.3518" lon="-0.0775">
        <ele>58</ele>
        <time>2018-09-22T14:47:59Z</time>
      </trkpt>
      <trkpt lat="48.35183" lon="-0.07754">
        <ele>58</ele>
        <time>2018-09-22T14:48:54Z</time>
      </trkpt>
      <trkpt lat="48.35184" lon="-0.07755">
        <ele>57</ele>
        <time>2018-09-22T14:49:14Z</time>
      </trkpt>
    </trkseg>
  </trk>
</gpx>